Observation data for Wall on 01/10/2018      Previous  Date  Next       Current Mesonet Observations  Soil Data  Daily Summary Page  Observations in Plain Language
KWA1 100600Z 20012KT 13/03 A2992 RMK A01 T01330028  RH  049%=      5-min Rain = 0
KWA1 100601Z 20014KT 13/03 A2992 RMK A01 T01320027  RH  049%=      5-min Rain = 0
KWA1 100602Z 20013G18KT 13/03 A2992 RMK A01 T01320027  RH  049%=      5-min Rain = 0
KWA1 100603Z 20013KT 13/03 A2992 RMK A01 T01330027  RH  049%=      5-min Rain = 0
KWA1 100604Z 21011KT 13/03 A2992 RMK A01 T01330027  RH  049%=      5-min Rain = 0
KWA1 100605Z 20012KT 13/03 A2992 RMK A01 T01320027  RH  049%=      5-min Rain = 0
KWA1 100606Z 21012KT 13/03 A2992 RMK A01 T01320027  RH  049%=      5-min Rain = 0
KWA1 100607Z 20011KT 13/03 A2992 RMK A01 T01320027  RH  049%=      5-min Rain = 0
KWA1 100608Z 20012KT 13/03 A2992 RMK A01 T01320027  RH  049%=      5-min Rain = 0
KWA1 100609Z 20012KT 13/03 A2992 RMK A01 T01310027  RH  049%=      5-min Rain = 0
KWA1 100610Z 20012KT 13/03 A2992 RMK A01 T01310027  RH  049%=      5-min Rain = 0
KWA1 100611Z 20011KT 13/03 A2992 RMK A01 T01320027  RH  049%=      5-min Rain = 0
KWA1 100612Z 21012KT 13/03 A2992 RMK A01 T01320027  RH  049%=      5-min Rain = 0
KWA1 100613Z 20010KT 13/03 A2992 RMK A01 T01320027  RH  049%=      5-min Rain = 0
KWA1 100614Z 20010KT 13/03 A2992 RMK A01 T01310027  RH  049%=      5-min Rain = 0
KWA1 100615Z 20013KT 13/03 A2992 RMK A01 T01300027  RH  049%=      5-min Rain = 0
KWA1 100616Z 20012G17KT 13/03 A2991 RMK A01 T01310027  RH  049%=      5-min Rain = 0
KWA1 100617Z 21010KT 13/03 A2992 RMK A01 T01320027  RH  049%=      5-min Rain = 0
KWA1 100618Z 20012KT 13/03 A2992 RMK A01 T01310027  RH  049%=      5-min Rain = 0
KWA1 100619Z 20011KT 13/03 A2991 RMK A01 T01310027  RH  049%=      5-min Rain = 0
KWA1 100620Z 20009KT 13/03 A2992 RMK A01 T01310027  RH  049%=      5-min Rain = 0
KWA1 100621Z 21011KT 13/03 A2991 RMK A01 T01310027  RH  049%=      5-min Rain = 0
KWA1 100622Z 20012KT 13/03 A2991 RMK A01 T01300027  RH  049%=      5-min Rain = 0
KWA1 100623Z 20014KT 13/03 A2991 RMK A01 T01310027  RH  049%=      5-min Rain = 0
KWA1 100624Z 20013KT 13/03 A2991 RMK A01 T01330027  RH  049%=      5-min Rain = 0
KWA1 100625Z 21010KT 13/03 A2991 RMK A01 T01330027  RH  049%=      5-min Rain = 0
KWA1 100626Z 21011KT 13/03 A2991 RMK A01 T01320027  RH  049%=      5-min Rain = 0
KWA1 100627Z 21010KT 13/03 A2991 RMK A01 T01310027  RH  049%=      5-min Rain = 0
KWA1 100628Z 21011KT 13/03 A2991 RMK A01 T01310027  RH  049%=      5-min Rain = 0
KWA1 100629Z 21009KT 13/03 A2991 RMK A01 T01300027  RH  049%=      5-min Rain = 0
KWA1 100630Z 21010KT 13/03 A2991 RMK A01 T01300027  RH  050%=      5-min Rain = 0
KWA1 100631Z 21009KT 13/03 A2992 RMK A01 T01290027  RH  050%=      5-min Rain = 0
KWA1 100632Z 21012G18KT 13/03 A2991 RMK A01 T01290027  RH  050%=      5-min Rain = 0
KWA1 100633Z 21011KT 13/03 A2991 RMK A01 T01300027  RH  050%=      5-min Rain = 0
KWA1 100634Z 22010KT 13/03 A2992 RMK A01 T01310027  RH  049%=      5-min Rain = 0
KWA1 100635Z 22009KT 13/03 A2992 RMK A01 T01300027  RH  050%=      5-min Rain = 0
KWA1 100636Z 22008KT 13/03 A2992 RMK A01 T01290027  RH  050%=      5-min Rain = 0
KWA1 100637Z 23008KT 13/03 A2992 RMK A01 T01280027  RH  050%=      5-min Rain = 0
KWA1 100638Z 22011KT 13/03 A2992 RMK A01 T01270027  RH  050%=      5-min Rain = 0
KWA1 100639Z 23009KT 13/03 A2992 RMK A01 T01280027  RH  050%=      5-min Rain = 0
KWA1 100640Z 23007KT 13/03 A2992 RMK A01 T01280027  RH  050%=      5-min Rain = 0
KWA1 100641Z 23007KT 13/03 A2992 RMK A01 T01280027  RH  050%=      5-min Rain = 0
KWA1 100642Z 23006KT 13/03 A2992 RMK A01 T01280027  RH  050%=      5-min Rain = 0
KWA1 100643Z 25007KT 13/03 A2991 RMK A01 T01270027  RH  050%=      5-min Rain = 0
KWA1 100644Z 24007KT 13/03 A2992 RMK A01 T01260027  RH  051%=      5-min Rain = 0
KWA1 100645Z 24008KT 13/03 A2992 RMK A01 T01260026  RH  050%=      5-min Rain = 0
KWA1 100646Z 25007KT 13/03 A2992 RMK A01 T01270027  RH  051%=      5-min Rain = 0
KWA1 100647Z 24007KT 13/03 A2991 RMK A01 T01270027  RH  050%=      5-min Rain = 0
KWA1 100648Z 24006KT 13/03 A2992 RMK A01 T01280027  RH  050%=      5-min Rain = 0
KWA1 100649Z 25006KT 13/03 A2992 RMK A01 T01260026  RH  050%=      5-min Rain = 0
KWA1 100650Z 25007KT 12/03 A2992 RMK A01 T01230025  RH  051%=      5-min Rain = 0
KWA1 100651Z 25008KT 12/03 A2992 RMK A01 T01210026  RH  052%=      5-min Rain = 0
KWA1 100652Z 25007KT 12/03 A2992 RMK A01 T01220026  RH  052%=      5-min Rain = 0
KWA1 100653Z 25007KT 12/03 A2992 RMK A01 T01230026  RH  052%=      5-min Rain = 0
KWA1 100654Z 24007KT 12/03 A2992 RMK A01 T01220026  RH  052%=      5-min Rain = 0
KWA1 100655Z 25006KT 12/03 A2992 RMK A01 T01220026  RH  052%=      5-min Rain = 0
KWA1 100656Z 25006KT 12/03 A2992 RMK A01 T01210026  RH  052%=      5-min Rain = 0
KWA1 100657Z 25006KT 12/03 A2992 RMK A01 T01220026  RH  052%=      5-min Rain = 0
KWA1 100658Z 24007KT 12/03 A2992 RMK A01 T01220025  RH  052%=      5-min Rain = 0
KWA1 100659Z 24007KT 12/03 A2991 RMK A01 T01210025  RH  052%=      5-min Rain = 0
KWA1 100700Z 24007KT 12/03 A2991 RMK A01 T01210025  RH  052%=      5-min Rain = 0
KWA1 100701Z 22007KT 12/03 A2991 RMK A01 T01230026  RH  052%=      5-min Rain = 0
KWA1 100702Z 23006KT 12/03 A2991 RMK A01 T01230026  RH  051%=      5-min Rain = 0
KWA1 100703Z 23007KT 12/03 A2991 RMK A01 T01220025  RH  052%=      5-min Rain = 0
KWA1 100704Z 23007KT 12/03 A2991 RMK A01 T01210025  RH  052%=      5-min Rain = 0
KWA1 100705Z 23006KT 12/03 A2991 RMK A01 T01200025  RH  052%=      5-min Rain = 0
KWA1 100706Z 23007KT 12/03 A2991 RMK A01 T01200025  RH  052%=      5-min Rain = 0
KWA1 100707Z 22008KT 12/03 A2991 RMK A01 T01190025  RH  053%=      5-min Rain = 0
KWA1 100708Z 23008KT 12/03 A2991 RMK A01 T01190025  RH  053%=      5-min Rain = 0
KWA1 100709Z 23007KT 12/03 A2991 RMK A01 T01200026  RH  052%=      5-min Rain = 0
KWA1 100710Z 23008KT 12/03 A2991 RMK A01 T01200025  RH  052%=      5-min Rain = 0
KWA1 100711Z 22008KT 12/03 A2991 RMK A01 T01200026  RH  052%=      5-min Rain = 0
KWA1 100712Z 23010KT 12/03 A2991 RMK A01 T01200025  RH  052%=      5-min Rain = 0
KWA1 100713Z 23008KT 12/03 A2991 RMK A01 T01200025  RH  052%=      5-min Rain = 0
KWA1 100714Z 22009KT 12/03 A2991 RMK A01 T01200025  RH  052%=      5-min Rain = 0
KWA1 100715Z 23008KT 12/03 A2991 RMK A01 T01190025  RH  052%=      5-min Rain = 0
KWA1 100716Z 22009KT 12/03 A2991 RMK A01 T01200026  RH  052%=      5-min Rain = 0
KWA1 100717Z 22010KT 12/03 A2991 RMK A01 T01200026  RH  052%=      5-min Rain = 0
KWA1 100718Z 22009KT 12/03 A2991 RMK A01 T01220026  RH  052%=      5-min Rain = 0
KWA1 100719Z 22009KT 12/03 A2991 RMK A01 T01220026  RH  052%=      5-min Rain = 0
KWA1 100720Z 23009KT 12/03 A2991 RMK A01 T01210025  RH  052%=      5-min Rain = 0
KWA1 100721Z 23007KT 12/03 A2991 RMK A01 T01200025  RH  052%=      5-min Rain = 0
KWA1 100722Z 22007KT 12/03 A2991 RMK A01 T01170025  RH  053%=      5-min Rain = 0
KWA1 100723Z 23008KT 12/02 A2991 RMK A01 T01150024  RH  054%=      5-min Rain = 0
KWA1 100724Z 23009G14KT 12/03 A2991 RMK A01 T01150025  RH  054%=      5-min Rain = 0
KWA1 100725Z 23006KT 12/03 A2991 RMK A01 T01180025  RH  053%=      5-min Rain = 0
KWA1 100726Z 23007KT 12/03 A2991 RMK A01 T01170025  RH  053%=      5-min Rain = 0
KWA1 100727Z 23007KT 12/02 A2991 RMK A01 T01150024  RH  054%=      5-min Rain = 0
KWA1 100728Z 24005KT 11/02 A2991 RMK A01 T01140024  RH  054%=      5-min Rain = 0
KWA1 100729Z 24006KT 11/02 A2991 RMK A01 T01130024  RH  054%=      5-min Rain = 0
KWA1 100730Z 24006KT 11/03 A2991 RMK A01 T01130025  RH  055%=      5-min Rain = 0
KWA1 100731Z 25006KT 11/03 A2991 RMK A01 T01130025  RH  055%=      5-min Rain = 0
KWA1 100732Z 24005KT 11/02 A2991 RMK A01 T01110024  RH  055%=      5-min Rain = 0
KWA1 100733Z 24006KT 11/02 A2991 RMK A01 T01120024  RH  055%=      5-min Rain = 0
KWA1 100734Z 24006KT 11/02 A2991 RMK A01 T01100023  RH  055%=      5-min Rain = 0
KWA1 100735Z 23007KT 11/02 A2991 RMK A01 T01100024  RH  055%=      5-min Rain = 0
KWA1 100736Z 23006KT 11/02 A299 RMK A01 T01100024  RH  055%=      5-min Rain = 0
KWA1 100737Z 23005KT 11/02 A299 RMK A01 T01110024  RH  055%=      5-min Rain = 0
KWA1 100738Z 23007KT 11/02 A299 RMK A01 T01110024  RH  055%=      5-min Rain = 0
KWA1 100739Z 23006KT 11/03 A299 RMK A01 T01130025  RH  055%=      5-min Rain = 0
KWA1 100740Z 23007KT 11/02 A299 RMK A01 T01140024  RH  054%=      5-min Rain = 0
KWA1 100741Z 22008KT 11/02 A299 RMK A01 T01120023  RH  054%=      5-min Rain = 0
KWA1 100742Z 22010KT 11/02 A299 RMK A01 T01120024  RH  055%=      5-min Rain = 0
KWA1 100743Z 22008KT 11/03 A299 RMK A01 T01140025  RH  054%=      5-min Rain = 0
KWA1 100744Z 22011KT 11/02 A299 RMK A01 T01140024  RH  054%=      5-min Rain = 0
KWA1 100745Z 22007KT 11/02 A299 RMK A01 T01140024  RH  054%=      5-min Rain = 0
KWA1 100746Z 21010KT 11/02 A299 RMK A01 T01130024  RH  054%=      5-min Rain = 0
KWA1 100747Z 21010KT 12/03 A299 RMK A01 T01150025  RH  054%=      5-min Rain = 0
KWA1 100748Z 21010KT 12/03 A299 RMK A01 T01160025  RH  053%=      5-min Rain = 0
KWA1 100749Z 21010KT 12/03 A299 RMK A01 T01170025  RH  053%=      5-min Rain = 0
KWA1 100750Z 21010KT 12/03 A299 RMK A01 T01180025  RH  053%=      5-min Rain = 0
KWA1 100751Z 21009KT 12/03 A299 RMK A01 T01180025  RH  053%=      5-min Rain = 0
KWA1 100752Z 20009KT 12/03 A299 RMK A01 T01170025  RH  053%=      5-min Rain = 0
KWA1 100753Z 21008KT 12/02 A299 RMK A01 T01160024  RH  053%=      5-min Rain = 0
KWA1 100754Z 21008KT 12/02 A299 RMK A01 T01160024  RH  053%=      5-min Rain = 0
KWA1 100755Z 21009KT 12/02 A299 RMK A01 T01160024  RH  053%=      5-min Rain = 0
KWA1 100756Z 21008KT 12/02 A299 RMK A01 T01160024  RH  053%=      5-min Rain = 0
KWA1 100757Z 21007KT 12/02 A299 RMK A01 T01150024  RH  053%=      5-min Rain = 0
KWA1 100758Z 21008KT 12/02 A299 RMK A01 T01150024  RH  054%=      5-min Rain = 0
KWA1 100759Z 21009KT 12/02 A299 RMK A01 T01150024  RH  053%=      5-min Rain = 0
KWA1 100800Z 22006KT 12/02 A299 RMK A01 T01160024  RH  053%=      5-min Rain = 0
KWA1 100801Z 22006KT 11/02 A299 RMK A01 T01140023  RH  053%=      5-min Rain = 0
KWA1 100802Z 21008KT 11/02 A299 RMK A01 T01120022  RH  054%=      5-min Rain = 0
KWA1 100803Z 21008KT 11/02 A299 RMK A01 T01120023  RH  054%=      5-min Rain = 0
KWA1 100804Z 21007KT 11/02 A299 RMK A01 T01120023  RH  054%=      5-min Rain = 0
KWA1 100805Z 22006KT 11/02 A299 RMK A01 T01120023  RH  054%=      5-min Rain = 0
KWA1 100806Z 22007KT 11/02 A299 RMK A01 T01100022  RH  055%=      5-min Rain = 0
KWA1 100807Z 22008KT 11/02 A299 RMK A01 T01100022  RH  055%=      5-min Rain = 0
KWA1 100808Z 21009KT 11/02 A299 RMK A01 T01110023  RH  055%=      5-min Rain = 0
KWA1 100809Z 22008KT 11/02 A299 RMK A01 T01130023  RH  054%=      5-min Rain = 0
KWA1 100810Z 22007KT 11/02 A299 RMK A01 T01140023  RH  054%=      5-min Rain = 0
KWA1 100811Z 23005KT 11/02 A299 RMK A01 T01120022  RH  054%=      5-min Rain = 0
KWA1 100812Z 22006KT 11/02 A2989 RMK A01 T01100022  RH  055%=      5-min Rain = 0
KWA1 100813Z 22006KT 11/02 A2989 RMK A01 T01090022  RH  055%=      5-min Rain = 0
KWA1 100814Z 21008KT 11/02 A2989 RMK A01 T01090022  RH  055%=      5-min Rain = 0
KWA1 100815Z 21008KT 11/02 A2989 RMK A01 T01110022  RH  054%=      5-min Rain = 0
KWA1 100816Z 22006KT 11/02 A2989 RMK A01 T01120022  RH  054%=      5-min Rain = 0
KWA1 100817Z 22007KT 11/02 A2989 RMK A01 T01110021  RH  054%=      5-min Rain = 0
KWA1 100818Z 22007KT 11/02 A2989 RMK A01 T01110021  RH  054%=      5-min Rain = 0
KWA1 100819Z 22008KT 11/02 A2989 RMK A01 T01110021  RH  054%=      5-min Rain = 0
KWA1 100820Z 22007KT 11/02 A2989 RMK A01 T01110021  RH  054%=      5-min Rain = 0
KWA1 100821Z 23008KT 11/02 A2989 RMK A01 T01100021  RH  054%=      5-min Rain = 0
KWA1 100822Z 22008KT 11/02 A2989 RMK A01 T01100021  RH  054%=      5-min Rain = 0
KWA1 100823Z 22008KT 11/02 A2989 RMK A01 T01090021  RH  055%=      5-min Rain = 0
KWA1 100824Z 22010KT 11/02 A2989 RMK A01 T01100021  RH  054%=      5-min Rain = 0
KWA1 100825Z 22009KT 11/02 A2989 RMK A01 T01130022  RH  053%=      5-min Rain = 0
KWA1 100826Z 21012KT 11/02 A2989 RMK A01 T01140021  RH  053%=      5-min Rain = 0
KWA1 100827Z 21011KT 12/02 A2988 RMK A01 T01170022  RH  052%=      5-min Rain = 0
KWA1 100828Z 21011KT 12/02 A2988 RMK A01 T01180021  RH  051%=      5-min Rain = 0
KWA1 100829Z 22010KT 12/02 A2988 RMK A01 T01180021  RH  051%=      5-min Rain = 0
KWA1 100830Z 22011KT 12/02 A2988 RMK A01 T01170021  RH  052%=      5-min Rain = 0
KWA1 100831Z 22010KT 12/02 A2988 RMK A01 T01180021  RH  051%=      5-min Rain = 0
KWA1 100832Z 22012KT 12/02 A2988 RMK A01 T01180020  RH  051%=      5-min Rain = 0
KWA1 100833Z 22010KT 12/02 A2988 RMK A01 T01190021  RH  051%=      5-min Rain = 0
KWA1 100834Z 22012G17KT 12/02 A2988 RMK A01 T01200021  RH  051%=      5-min Rain = 0
KWA1 100835Z 21012KT 12/02 A2988 RMK A01 T01210021  RH  051%=      5-min Rain = 0
KWA1 100836Z 21012KT 12/02 A2988 RMK A01 T01210021  RH  050%=      5-min Rain = 0
KWA1 100837Z 21012KT 12/02 A2988 RMK A01 T01220021  RH  050%=      5-min Rain = 0
KWA1 100838Z 21013KT 12/02 A2988 RMK A01 T01220021  RH  050%=      5-min Rain = 0
KWA1 100839Z 21014KT 12/02 A2988 RMK A01 T01220021  RH  050%=      5-min Rain = 0
KWA1 100840Z 21013KT 12/02 A2988 RMK A01 T01230021  RH  050%=      5-min Rain = 0
KWA1 100841Z 21012KT 12/02 A2988 RMK A01 T01230021  RH  050%=      5-min Rain = 0
KWA1 100842Z 21013G18KT 12/02 A2988 RMK A01 T01220021  RH  050%=      5-min Rain = 0
KWA1 100843Z 21014KT 12/02 A2988 RMK A01 T01220021  RH  050%=      5-min Rain = 0
KWA1 100844Z 21013KT 12/02 A2988 RMK A01 T01220021  RH  050%=      5-min Rain = 0
KWA1 100845Z 21011KT 12/02 A2988 RMK A01 T01230021  RH  050%=      5-min Rain = 0
KWA1 100846Z 21012KT 12/02 A2988 RMK A01 T01230021  RH  050%=      5-min Rain = 0
KWA1 100847Z 21014KT 12/02 A2988 RMK A01 T01220021  RH  050%=      5-min Rain = 0
KWA1 100848Z 21013KT 12/02 A2988 RMK A01 T01240022  RH  050%=      5-min Rain = 0
KWA1 100849Z 21011KT 12/02 A2988 RMK A01 T01240021  RH  050%=      5-min Rain = 0
KWA1 100850Z 21011KT 12/02 A2988 RMK A01 T01220021  RH  050%=      5-min Rain = 0
KWA1 100851Z 21010KT 12/02 A2988 RMK A01 T01210021  RH  050%=      5-min Rain = 0
KWA1 100852Z 21011KT 12/02 A2988 RMK A01 T01200021  RH  051%=      5-min Rain = 0
KWA1 100853Z 21012KT 12/02 A2988 RMK A01 T01200021  RH  051%=      5-min Rain = 0
KWA1 100854Z 21012KT 12/02 A2988 RMK A01 T01200020  RH  051%=      5-min Rain = 0
KWA1 100855Z 22009KT 12/02 A2988 RMK A01 T01210021  RH  051%=      5-min Rain = 0
KWA1 100856Z 22010KT 12/02 A2988 RMK A01 T01190021  RH  051%=      5-min Rain = 0
KWA1 100857Z 22011KT 12/02 A2988 RMK A01 T01180021  RH  051%=      5-min Rain = 0
KWA1 100858Z 22011KT 12/02 A2988 RMK A01 T01190021  RH  051%=      5-min Rain = 0
KWA1 100859Z 22009KT 12/02 A2988 RMK A01 T01200021  RH  051%=      5-min Rain = 0
KWA1 100900Z 22009KT 12/02 A2988 RMK A01 T01200021  RH  051%=      5-min Rain = 0
KWA1 100901Z 22009KT 12/02 A2988 RMK A01 T01190021  RH  051%=      5-min Rain = 0
KWA1 100902Z 22008KT 12/02 A2988 RMK A01 T01170021  RH  052%=      5-min Rain = 0
KWA1 100903Z 22009KT 12/02 A2988 RMK A01 T01160021  RH  052%=      5-min Rain = 0
KWA1 100904Z 22009KT 12/02 A2988 RMK A01 T01160021  RH  052%=      5-min Rain = 0
KWA1 100905Z 21009KT 12/02 A2988 RMK A01 T01160021  RH  052%=      5-min Rain = 0
KWA1 100906Z 22009KT 12/02 A2988 RMK A01 T01160021  RH  052%=      5-min Rain = 0
KWA1 100907Z 22008KT 12/02 A2988 RMK A01 T01160021  RH  052%=      5-min Rain = 0
KWA1 100908Z 23008KT 12/02 A2988 RMK A01 T01160021  RH  052%=      5-min Rain = 0
KWA1 100909Z 22008KT 12/02 A2988 RMK A01 T01150021  RH  052%=      5-min Rain = 0
KWA1 100910Z 22010KT 12/02 A2988 RMK A01 T01150021  RH  053%=      5-min Rain = 0
KWA1 100911Z 23009KT 11/02 A2988 RMK A01 T01140021  RH  053%=      5-min Rain = 0
KWA1 100912Z 23008KT 12/02 A2988 RMK A01 T01150021  RH  052%=      5-min Rain = 0
KWA1 100913Z 23008KT 12/02 A2988 RMK A01 T01150021  RH  052%=      5-min Rain = 0
KWA1 100914Z 22009KT 11/02 A2988 RMK A01 T01140021  RH  053%=      5-min Rain = 0
KWA1 100915Z 22009KT 11/02 A2988 RMK A01 T01140021  RH  053%=      5-min Rain = 0
KWA1 100916Z 22009KT 12/02 A2988 RMK A01 T01150021  RH  053%=      5-min Rain = 0
KWA1 100917Z 22008KT 12/02 A2988 RMK A01 T01180021  RH  052%=      5-min Rain = 0
KWA1 100918Z 22009KT 12/02 A2988 RMK A01 T01190021  RH  051%=      5-min Rain = 0
KWA1 100919Z 22009KT 12/02 A2988 RMK A01 T01180021  RH  051%=      5-min Rain = 0
KWA1 100920Z 22007KT 12/02 A2988 RMK A01 T01190021  RH  051%=      5-min Rain = 0
KWA1 100921Z 22009KT 12/02 A2988 RMK A01 T01170020  RH  051%=      5-min Rain = 0
KWA1 100922Z 21008KT 12/02 A2988 RMK A01 T01180021  RH  051%=      5-min Rain = 0
KWA1 100923Z 21009KT 12/02 A2988 RMK A01 T01180021  RH  051%=      5-min Rain = 0
KWA1 100924Z 21011KT 12/02 A2988 RMK A01 T01180021  RH  051%=      5-min Rain = 0
KWA1 100925Z 21009KT 12/02 A2988 RMK A01 T01200021  RH  051%=      5-min Rain = 0
KWA1 100926Z 21010KT 12/02 A2988 RMK A01 T01200021  RH  051%=      5-min Rain = 0
KWA1 100927Z 21010KT 12/02 A2988 RMK A01 T01190021  RH  051%=      5-min Rain = 0
KWA1 100928Z 22009KT 12/02 A2988 RMK A01 T01190021  RH  051%=      5-min Rain = 0
KWA1 100929Z 21009KT 12/02 A2988 RMK A01 T01190021  RH  051%=      5-min Rain = 0
KWA1 100930Z 21009KT 12/02 A2988 RMK A01 T01200021  RH  051%=      5-min Rain = 0
KWA1 100931Z 21008KT 12/02 A2988 RMK A01 T01200021  RH  051%=      5-min Rain = 0
KWA1 100932Z 22007KT 12/02 A2988 RMK A01 T01190021  RH  051%=      5-min Rain = 0
KWA1 100933Z 21010KT 12/02 A2988 RMK A01 T01190021  RH  051%=      5-min Rain = 0
KWA1 100934Z 22008KT 12/02 A2988 RMK A01 T01200021  RH  051%=      5-min Rain = 0
KWA1 100935Z 21007KT 12/02 A2988 RMK A01 T01200021  RH  051%=      5-min Rain = 0
KWA1 100936Z 22007KT 12/02 A2988 RMK A01 T01180020  RH  051%=      5-min Rain = 0
KWA1 100937Z 22007KT 12/02 A2988 RMK A01 T01150020  RH  052%=      5-min Rain = 0
KWA1 100938Z 22007KT 11/02 A2988 RMK A01 T01140020  RH  053%=      5-min Rain = 0
KWA1 100939Z 22008KT 11/02 A2988 RMK A01 T01130020  RH  053%=      5-min Rain = 0
KWA1 100940Z 21009KT 11/02 A2988 RMK A01 T01140021  RH  053%=      5-min Rain = 0
KWA1 100941Z 21008KT 12/02 A2988 RMK A01 T01150022  RH  053%=      5-min Rain = 0
KWA1 100942Z 21008KT 12/02 A2988 RMK A01 T01150022  RH  053%=      5-min Rain = 0
KWA1 100943Z 21008KT 12/02 A2988 RMK A01 T01150021  RH  052%=      5-min Rain = 0
KWA1 100944Z 23006KT 11/02 A2988 RMK A01 T01140021  RH  053%=      5-min Rain = 0
KWA1 100945Z 21006KT 11/02 A2988 RMK A01 T01120020  RH  053%=      5-min Rain = 0
KWA1 100946Z 21007KT 11/02 A2988 RMK A01 T01110020  RH  053%=      5-min Rain = 0
KWA1 100947Z 22008KT 11/02 A2988 RMK A01 T01100020  RH  054%=      5-min Rain = 0
KWA1 100948Z 21007KT 11/02 A2988 RMK A01 T01110021  RH  054%=      5-min Rain = 0
KWA1 100949Z 21008KT 11/02 A2988 RMK A01 T01120022  RH  054%=      5-min Rain = 0
KWA1 100950Z 21008KT 11/02 A2988 RMK A01 T01110021  RH  054%=      5-min Rain = 0
KWA1 100951Z 21008KT 11/02 A2988 RMK A01 T01120022  RH  054%=      5-min Rain = 0
KWA1 100952Z 22008KT 11/02 A2988 RMK A01 T01130022  RH  054%=      5-min Rain = 0
KWA1 100953Z 22007KT 11/02 A2988 RMK A01 T01130022  RH  054%=      5-min Rain = 0
KWA1 100954Z 22008KT 11/02 A2988 RMK A01 T01140022  RH  053%=      5-min Rain = 0
KWA1 100955Z 24007KT 12/02 A2988 RMK A01 T01160023  RH  053%=      5-min Rain = 0
KWA1 100956Z 23007KT 12/02 A2988 RMK A01 T01160022  RH  053%=      5-min Rain = 0
KWA1 100957Z 25006KT 12/02 A2988 RMK A01 T01160022  RH  053%=      5-min Rain = 0
KWA1 100958Z 27006KT 11/02 A2988 RMK A01 T01140021  RH  053%=      5-min Rain = 0
KWA1 100959Z 28005KT 11/02 A2988 RMK A01 T01100020  RH  054%=      5-min Rain = 0
KWA1 101000Z 29005KT 11/02 A2988 RMK A01 T01050018  RH  055%=      5-min Rain = 0
KWA1 101001Z 29004KT 10/02 A2988 RMK A01 T01020019  RH  056%=      5-min Rain = 0
KWA1 101002Z 30004KT 10/02 A2988 RMK A01 T00980017  RH  057%=      5-min Rain = 0
KWA1 101003Z 30004KT 10/02 A2988 RMK A01 T00950017  RH  058%=      5-min Rain = 0
KWA1 101004Z 29004KT 09/02 A2988 RMK A01 T00930017  RH  059%=      5-min Rain = 0
KWA1 101005Z 28003KT 09/02 A2988 RMK A01 T00910017  RH  060%=      5-min Rain = 0
KWA1 101006Z 28002KT 09/02 A2988 RMK A01 T00900016  RH  060%=      5-min Rain = 0
KWA1 101007Z 25004KT 09/02 A2988 RMK A01 T00880016  RH  061%=      5-min Rain = 0
KWA1 101008Z 24003KT 09/02 A2988 RMK A01 T00890017  RH  061%=      5-min Rain = 0
KWA1 101009Z 26003KT 09/02 A2988 RMK A01 T00930020  RH  060%=      5-min Rain = 0
KWA1 101010Z 28003KT 10/02 A2988 RMK A01 T00950020  RH  059%=      5-min Rain = 0
KWA1 101011Z 31003KT 10/02 A2988 RMK A01 T00960018  RH  058%=      5-min Rain = 0
KWA1 101012Z 32003KT 09/02 A2988 RMK A01 T00930017  RH  059%=      5-min Rain = 0
KWA1 101013Z 33003KT 09/02 A2988 RMK A01 T00910017  RH  060%=      5-min Rain = 0
KWA1 101014Z 34004KT 09/02 A2988 RMK A01 T00900016  RH  060%=      5-min Rain = 0
KWA1 101015Z 35004KT 09/02 A2988 RMK A01 T00870015  RH  060%=      5-min Rain = 0
KWA1 101016Z 34004KT 09/02 A2988 RMK A01 T00850015  RH  061%=      5-min Rain = 0
KWA1 101017Z 33005KT 08/01 A2988 RMK A01 T00830014  RH  062%=      5-min Rain = 0
KWA1 101018Z 33004KT 08/01 A2988 RMK A01 T00810014  RH  062%=      5-min Rain = 0
KWA1 101019Z 33003KT 08/01 A2988 RMK A01 T00790014  RH  063%=      5-min Rain = 0
KWA1 101020Z 33003KT 08/01 A2988 RMK A01 T00780013  RH  063%=      5-min Rain = 0
KWA1 101021Z 35001KT 08/01 A2988 RMK A01 T00760012  RH  064%=      5-min Rain = 0
KWA1 101022Z 34001KT 08/01 A2988 RMK A01 T00750013  RH  065%=      5-min Rain = 0
KWA1 101023Z 32002KT 07/01 A2988 RMK A01 T00740013  RH  065%=      5-min Rain = 0
KWA1 101024Z 31003KT 07/01 A2988 RMK A01 T00740014  RH  065%=      5-min Rain = 0
KWA1 101025Z 31002KT 08/02 A2988 RMK A01 T00750015  RH  065%=      5-min Rain = 0
KWA1 101026Z 34002KT 08/01 A2988 RMK A01 T00770014  RH  065%=      5-min Rain = 0
KWA1 101027Z 32002KT 08/01 A2988 RMK A01 T00760013  RH  064%=      5-min Rain = 0
KWA1 101028Z 31003KT 07/01 A2988 RMK A01 T00740013  RH  065%=      5-min Rain = 0
KWA1 101029Z 32002KT 07/01 A2988 RMK A01 T00730012  RH  065%=      5-min Rain = 0
KWA1 101030Z 33002KT 07/01 A2988 RMK A01 T00700009  RH  065%=      5-min Rain = 0
KWA1 101031Z 32002KT 07/01 A2988 RMK A01 T00680010  RH  067%=      5-min Rain = 0
KWA1 101032Z 32003KT 07/01 A2988 RMK A01 T00660010  RH  067%=      5-min Rain = 0
KWA1 101033Z 33002KT 07/01 A2987 RMK A01 T00650010  RH  068%=      5-min Rain = 0
KWA1 101034Z 34002KT 06/01 A2987 RMK A01 T00640009  RH  068%=      5-min Rain = 0
KWA1 101035Z 34002KT 06/01 A2987 RMK A01 T00620008  RH  068%=      5-min Rain = 0
KWA1 101036Z 33002KT 06/01 A2987 RMK A01 T00610009  RH  070%=      5-min Rain = 0
KWA1 101037Z 34002KT 06/01 A2987 RMK A01 T00610010  RH  070%=      5-min Rain = 0
KWA1 101038Z 36002KT 06/01 A2987 RMK A01 T00600009  RH  070%=      5-min Rain = 0
KWA1 101039Z 01002KT 06/01 A2988 RMK A01 T00580008  RH  070%=      5-min Rain = 0
KWA1 101040Z 01003KT 06/01 A2988 RMK A01 T00580009  RH  071%=      5-min Rain = 0
KWA1 101041Z 35003KT 06/01 A2988 RMK A01 T00590011  RH  071%=      5-min Rain = 0
KWA1 101042Z 35002KT 06/02 A2987 RMK A01 T00640016  RH  071%=      5-min Rain = 0
KWA1 101043Z 00002KT 07/02 A2988 RMK A01 T00720020  RH  069%=      5-min Rain = 0
KWA1 101044Z 02003KT 08/02 A2987 RMK A01 T00800021  RH  066%=      5-min Rain = 0
KWA1 101045Z 02003KT 08/02 A2987 RMK A01 T00840019  RH  064%=      5-min Rain = 0
KWA1 101046Z 01002KT 09/02 A2987 RMK A01 T00860019  RH  062%=      5-min Rain = 0
KWA1 101047Z 35002KT 09/02 A2987 RMK A01 T00870018  RH  062%=      5-min Rain = 0
KWA1 101048Z 00003KT 09/02 A2987 RMK A01 T00880018  RH  061%=      5-min Rain = 0
KWA1 101049Z 01002KT 09/01 A2987 RMK A01 T00860014  RH  061%=      5-min Rain = 0
KWA1 101050Z 00003KT 08/01 A2987 RMK A01 T00820013  RH  062%=      5-min Rain = 0
KWA1 101051Z 36002KT 08/01 A2987 RMK A01 T00780013  RH  063%=      5-min Rain = 0
KWA1 101052Z 00002KT 08/01 A2987 RMK A01 T00780013  RH  064%=      5-min Rain = 0
KWA1 101053Z 35001KT 07/01 A2987 RMK A01 T00740011  RH  064%=      5-min Rain = 0
KWA1 101054Z 34001KT 07/01 A2987 RMK A01 T00720012  RH  065%=      5-min Rain = 0
KWA1 101055Z 34000KT 07/01 A2987 RMK A01 T00720013  RH  066%=      5-min Rain = 0
KWA1 101056Z 31001KT 07/01 A2987 RMK A01 T00720014  RH  067%=      5-min Rain = 0
KWA1 101057Z 31000KT 07/02 A2987 RMK A01 T00720015  RH  067%=      5-min Rain = 0
KWA1 101058Z 22001KT 08/02 A2987 RMK A01 T00760017  RH  066%=      5-min Rain = 0
KWA1 101059Z 24001KT 08/02 A2987 RMK A01 T00790016  RH  064%=      5-min Rain = 0
KWA1 101100Z 32001KT 08/02 A2987 RMK A01 T00800017  RH  064%=      5-min Rain = 0
KWA1 101101Z 20003KT 08/02 A2987 RMK A01 T00820018  RH  064%=      5-min Rain = 0
KWA1 101102Z 24003KT 09/02 A2987 RMK A01 T00850020  RH  063%=      5-min Rain = 0
KWA1 101103Z 23002KT 09/02 A2987 RMK A01 T00890020  RH  062%=      5-min Rain = 0
KWA1 101104Z 24001KT 09/02 A2987 RMK A01 T00920021  RH  061%=      5-min Rain = 0
KWA1 101105Z 21002KT 10/02 A2987 RMK A01 T00950020  RH  060%=      5-min Rain = 0
KWA1 101106Z 25002KT 10/02 A2987 RMK A01 T00970020  RH  059%=      5-min Rain = 0
KWA1 101107Z 26002KT 10/02 A2987 RMK A01 T00980020  RH  058%=      5-min Rain = 0
KWA1 101108Z 26001KT 10/02 A2987 RMK A01 T00980019  RH  058%=      5-min Rain = 0
KWA1 101109Z 33001KT 10/02 A2987 RMK A01 T00970018  RH  058%=      5-min Rain = 0
KWA1 101110Z 23000KT 10/02 A2987 RMK A01 T00950018  RH  059%=      5-min Rain = 0
KWA1 101111Z 30002KT 09/02 A2987 RMK A01 T00930017  RH  059%=      5-min Rain = 0
KWA1 101112Z 29001KT 09/02 A2987 RMK A01 T00920017  RH  060%=      5-min Rain = 0
KWA1 101113Z 32001KT 09/02 A2987 RMK A01 T00900016  RH  060%=      5-min Rain = 0
KWA1 101114Z 25001KT 09/02 A2987 RMK A01 T00890017  RH  061%=      5-min Rain = 0
KWA1 101115Z 25000KT 09/02 A2987 RMK A01 T00890017  RH  060%=      5-min Rain = 0
KWA1 101116Z 28000KT 09/02 A2987 RMK A01 T00890017  RH  061%=      5-min Rain = 0
KWA1 101117Z 22000KT 09/02 A2986 RMK A01 T00880016  RH  061%=      5-min Rain = 0
KWA1 101118Z 33001KT 09/02 A2986 RMK A01 T00880018  RH  061%=      5-min Rain = 0
KWA1 101119Z 14000KT 09/02 A2986 RMK A01 T00880017  RH  061%=      5-min Rain = 0
KWA1 101120Z 26001KT 09/02 A2986 RMK A01 T00880016  RH  061%=      5-min Rain = 0
KWA1 101121Z 28001KT 09/02 A2986 RMK A01 T00890018  RH  061%=      5-min Rain = 0
KWA1 101122Z 21002KT 09/02 A2986 RMK A01 T00900017  RH  060%=      5-min Rain = 0
KWA1 101123Z 23002KT 09/02 A2986 RMK A01 T00890016  RH  060%=      5-min Rain = 0
KWA1 101124Z 23003KT 09/02 A2986 RMK A01 T00880016  RH  061%=      5-min Rain = 0
KWA1 101125Z 24002KT 09/02 A2986 RMK A01 T00880016  RH  061%=      5-min Rain = 0
KWA1 101126Z 24002KT 09/02 A2986 RMK A01 T00890016  RH  060%=      5-min Rain = 0
KWA1 101127Z 25002KT 09/02 A2986 RMK A01 T00870015  RH  060%=      5-min Rain = 0
KWA1 101128Z 23004KT 09/02 A2986 RMK A01 T00860015  RH  061%=      5-min Rain = 0
KWA1 101129Z 24004KT 09/02 A2986 RMK A01 T00860015  RH  061%=      5-min Rain = 0
KWA1 101130Z 22004KT 09/02 A2986 RMK A01 T00890018  RH  061%=      5-min Rain = 0
KWA1 101131Z 21010KT 09/02 A2986 RMK A01 T00940021  RH  060%=      5-min Rain = 0
KWA1 101132Z 21011KT 11/03 A2986 RMK A01 T01060026  RH  058%=      5-min Rain = 0
KWA1 101133Z 24005KT 11/02 A2986 RMK A01 T01090021  RH  055%=      5-min Rain = 0
KWA1 101134Z 24005KT 11/02 A2986 RMK A01 T01050018  RH  055%=      5-min Rain = 0
KWA1 101135Z 21007KT 10/02 A2986 RMK A01 T01020019  RH  056%=      5-min Rain = 0
KWA1 101136Z 23005KT 10/02 A2986 RMK A01 T01030021  RH  056%=      5-min Rain = 0
KWA1 101137Z 23007KT 10/02 A2986 RMK A01 T01020019  RH  056%=      5-min Rain = 0
KWA1 101138Z 21009KT 10/02 A2987 RMK A01 T01000019  RH  057%=      5-min Rain = 0
KWA1 101139Z 22009KT 10/02 A2986 RMK A01 T01040023  RH  057%=      5-min Rain = 0
KWA1 101140Z 20007KT 11/02 A2986 RMK A01 T01090023  RH  055%=      5-min Rain = 0
KWA1 101141Z 20007KT 11/02 A2986 RMK A01 T01100023  RH  055%=      5-min Rain = 0
KWA1 101142Z 20008KT 11/02 A2986 RMK A01 T01080022  RH  055%=      5-min Rain = 0
KWA1 101143Z 21011G16KT 11/02 A2986 RMK A01 T01090023  RH  055%=      5-min Rain = 0
KWA1 101144Z 20008KT 12/03 A2986 RMK A01 T01170025  RH  053%=      5-min Rain = 0
KWA1 101145Z 20010KT 12/02 A2986 RMK A01 T01160023  RH  053%=      5-min Rain = 0
KWA1 101146Z 20010KT 12/02 A2986 RMK A01 T01180023  RH  052%=      5-min Rain = 0
KWA1 101147Z 21011KT 12/02 A2986 RMK A01 T01190023  RH  052%=      5-min Rain = 0
KWA1 101148Z 19010KT 12/02 A2986 RMK A01 T01210023  RH  051%=      5-min Rain = 0
KWA1 101149Z 20009KT 12/02 A2986 RMK A01 T01220023  RH  051%=      5-min Rain = 0
KWA1 101150Z 19007KT 12/02 A2986 RMK A01 T01210022  RH  051%=      5-min Rain = 0
KWA1 101151Z 20010KT 12/02 A2986 RMK A01 T01170021  RH  052%=      5-min Rain = 0
KWA1 101152Z 21010KT 12/02 A2986 RMK A01 T01160021  RH  052%=      5-min Rain = 0
KWA1 101153Z 20007KT 12/02 A2986 RMK A01 T01180023  RH  052%=      5-min Rain = 0
KWA1 101154Z 20008KT 12/02 A2986 RMK A01 T01170022  RH  052%=      5-min Rain = 0
KWA1 101155Z 20008KT 12/02 A2986 RMK A01 T01180022  RH  052%=      5-min Rain = 0
KWA1 101156Z 20008KT 12/02 A2986 RMK A01 T01170022  RH  052%=      5-min Rain = 0
KWA1 101157Z 20008KT 12/02 A2986 RMK A01 T01150022  RH  053%=      5-min Rain = 0
KWA1 101158Z 22005KT 11/02 A2986 RMK A01 T01140022  RH  053%=      5-min Rain = 0
KWA1 101159Z 23006KT 11/02 A2986 RMK A01 T01130021  RH  053%=      5-min Rain = 0
KWA1 101200Z 24006KT 11/02 A2986 RMK A01 T01110021  RH  054%=      5-min Rain = 0
KWA1 101201Z 22004KT 11/02 A2986 RMK A01 T01120021  RH  054%=      5-min Rain = 0
KWA1 101202Z 22004KT 11/02 A2986 RMK A01 T01120021  RH  053%=      5-min Rain = 0
KWA1 101203Z 22004KT 11/02 A2986 RMK A01 T01120021  RH  054%=      5-min Rain = 0
KWA1 101204Z 24004KT 11/02 A2987 RMK A01 T01110021  RH  054%=      5-min Rain = 0
KWA1 101205Z 25003KT 11/02 A2987 RMK A01 T01100021  RH  054%=      5-min Rain = 0
KWA1 101206Z 24004KT 11/02 A2987 RMK A01 T01080020  RH  055%=      5-min Rain = 0
KWA1 101207Z 24005KT 11/02 A2987 RMK A01 T01090021  RH  055%=      5-min Rain = 0
KWA1 101208Z 29003KT 11/02 A2987 RMK A01 T01120022  RH  054%=      5-min Rain = 0
KWA1 101209Z 18003KT 11/02 A2987 RMK A01 T01100020  RH  054%=      5-min Rain = 0
KWA1 101210Z 28004KT 11/02 A2987 RMK A01 T01080021  RH  055%=      5-min Rain = 0
KWA1 101211Z 30006KT 10/02 A2987 RMK A01 T01030019  RH  056%=      5-min Rain = 0
KWA1 101212Z 32006KT 10/02 A2986 RMK A01 T00980019  RH  058%=      5-min Rain = 0
KWA1 101213Z 29006KT 10/02 A2987 RMK A01 T00960019  RH  059%=      5-min Rain = 0
KWA1 101214Z 28004KT 09/02 A2987 RMK A01 T00920019  RH  060%=      5-min Rain = 0
KWA1 101215Z 28003KT 09/02 A2986 RMK A01 T00930021  RH  061%=      5-min Rain = 0
KWA1 101216Z 29006KT 10/02 A2987 RMK A01 T00960021  RH  059%=      5-min Rain = 0
KWA1 101217Z 29005KT 10/02 A2986 RMK A01 T00970021  RH  059%=      5-min Rain = 0
KWA1 101218Z 30006KT 09/02 A2986 RMK A01 T00940020  RH  060%=      5-min Rain = 0
KWA1 101219Z 29006KT 09/02 A2986 RMK A01 T00920020  RH  061%=      5-min Rain = 0
KWA1 101220Z 30006KT 09/02 A2986 RMK A01 T00910020  RH  061%=      5-min Rain = 0
KWA1 101221Z 29006KT 09/02 A2986 RMK A01 T00900020  RH  061%=      5-min Rain = 0
KWA1 101222Z 30004KT 09/02 A2986 RMK A01 T00920021  RH  061%=      5-min Rain = 0
KWA1 101223Z 29006KT 09/02 A2987 RMK A01 T00920020  RH  061%=      5-min Rain = 0
KWA1 101224Z 31005KT 09/02 A2986 RMK A01 T00910020  RH  061%=      5-min Rain = 0
KWA1 101225Z 30006KT 09/02 A2986 RMK A01 T00920021  RH  061%=      5-min Rain = 0
KWA1 101226Z 28006KT 09/02 A2986 RMK A01 T00930021  RH  061%=      5-min Rain = 0
KWA1 101227Z 26005KT 09/02 A2986 RMK A01 T00930021  RH  061%=      5-min Rain = 0
KWA1 101228Z 25003KT 10/02 A2986 RMK A01 T00970022  RH  060%=      5-min Rain = 0
KWA1 101229Z 29004KT 10/02 A2986 RMK A01 T01020023  RH  058%=      5-min Rain = 0
KWA1 101230Z 26004KT 10/02 A2986 RMK A01 T01040022  RH  057%=      5-min Rain = 0
KWA1 101231Z 27004KT 10/02 A2986 RMK A01 T01040022  RH  057%=      5-min Rain = 0
KWA1 101232Z 28005KT 10/02 A2986 RMK A01 T01040021  RH  056%=      5-min Rain = 0
KWA1 101233Z 25005KT 10/02 A2986 RMK A01 T01010020  RH  057%=      5-min Rain = 0
KWA1 101234Z 28005KT 10/02 A2986 RMK A01 T01010021  RH  058%=      5-min Rain = 0
KWA1 101235Z 28006KT 10/02 A2986 RMK A01 T01030021  RH  057%=      5-min Rain = 0
KWA1 101236Z 24007KT 11/02 A2986 RMK A01 T01070022  RH  055%=      5-min Rain = 0
KWA1 101237Z 28006KT 11/02 A2987 RMK A01 T01100022  RH  054%=      5-min Rain = 0
KWA1 101238Z 28006KT 11/02 A2987 RMK A01 T01070020  RH  055%=      5-min Rain = 0
KWA1 101239Z 29006KT 10/02 A2987 RMK A01 T01010020  RH  057%=      5-min Rain = 0
KWA1 101240Z 28005KT 10/02 A2987 RMK A01 T00990020  RH  058%=      5-min Rain = 0
KWA1 101241Z 27005KT 10/02 A2987 RMK A01 T00970020  RH  058%=      5-min Rain = 0
KWA1 101242Z 24006KT 10/02 A2987 RMK A01 T00980021  RH  059%=      5-min Rain = 0
KWA1 101243Z 27005KT 10/02 A2987 RMK A01 T01020022  RH  058%=      5-min Rain = 0
KWA1 101244Z 28005KT 10/02 A2987 RMK A01 T01030021  RH  057%=      5-min Rain = 0
KWA1 101245Z 28005KT 10/02 A2987 RMK A01 T01020021  RH  057%=      5-min Rain = 0
KWA1 101246Z 27005KT 10/02 A2987 RMK A01 T00980020  RH  058%=      5-min Rain = 0
KWA1 101247Z 28004KT 10/02 A2987 RMK A01 T00970021  RH  059%=      5-min Rain = 0
KWA1 101248Z 27005KT 10/02 A2987 RMK A01 T00960020  RH  059%=      5-min Rain = 0
KWA1 101249Z 26004KT 10/02 A2986 RMK A01 T00970021  RH  059%=      5-min Rain = 0
KWA1 101250Z 27003KT 10/02 A2986 RMK A01 T00980021  RH  059%=      5-min Rain = 0
KWA1 101251Z 28004KT 10/02 A2986 RMK A01 T00970019  RH  058%=      5-min Rain = 0
KWA1 101252Z 28004KT 09/02 A2986 RMK A01 T00940019  RH  060%=      5-min Rain = 0
KWA1 101253Z 29003KT 09/02 A2986 RMK A01 T00930020  RH  060%=      5-min Rain = 0
KWA1 101254Z 27003KT 09/02 A2986 RMK A01 T00920019  RH  060%=      5-min Rain = 0
KWA1 101255Z 28004KT 09/02 A2986 RMK A01 T00920020  RH  061%=      5-min Rain = 0
KWA1 101256Z 29004KT 09/02 A2986 RMK A01 T00910019  RH  060%=      5-min Rain = 0
KWA1 101257Z 27003KT 09/02 A2986 RMK A01 T00910020  RH  061%=      5-min Rain = 0
KWA1 101258Z 30003KT 09/02 A2986 RMK A01 T00940021  RH  060%=      5-min Rain = 0
KWA1 101259Z 30002KT 09/02 A2986 RMK A01 T00930020  RH  060%=      5-min Rain = 0
KWA1 101300Z 30002KT 09/02 A2986 RMK A01 T00930020  RH  060%=      5-min Rain = 0
KWA1 101301Z 05002KT 10/02 A2986 RMK A01 T00960021  RH  060%=      5-min Rain = 0
KWA1 101302Z 32002KT 10/02 A2986 RMK A01 T00980021  RH  059%=      5-min Rain = 0
KWA1 101303Z 35003KT 10/02 A2986 RMK A01 T00990021  RH  058%=      5-min Rain = 0
KWA1 101304Z 36003KT 10/02 A2986 RMK A01 T00980020  RH  058%=      5-min Rain = 0
KWA1 101305Z 01003KT 10/02 A2986 RMK A01 T00960020  RH  059%=      5-min Rain = 0
KWA1 101306Z 31002KT 10/02 A2986 RMK A01 T00960020  RH  059%=      5-min Rain = 0
KWA1 101307Z 29001KT 10/02 A2986 RMK A01 T00960020  RH  059%=      5-min Rain = 0
KWA1 101308Z 26001KT 10/02 A2986 RMK A01 T00980021  RH  059%=      5-min Rain = 0
KWA1 101309Z 28001KT 10/02 A2986 RMK A01 T00980021  RH  059%=      5-min Rain = 0
KWA1 101310Z 22002KT 10/02 A2986 RMK A01 T00980021  RH  059%=      5-min Rain = 0
KWA1 101311Z 20002KT 10/02 A2986 RMK A01 T01000022  RH  058%=      5-min Rain = 0
KWA1 101312Z 16001KT 10/02 A2986 RMK A01 T01020022  RH  057%=      5-min Rain = 0
KWA1 101313Z 33001KT 10/02 A2986 RMK A01 T01040022  RH  057%=      5-min Rain = 0
KWA1 101314Z 25004KT 11/02 A2986 RMK A01 T01050022  RH  056%=      5-min Rain = 0
KWA1 101315Z 22002KT 11/02 A2986 RMK A01 T01060022  RH  056%=      5-min Rain = 0
KWA1 101316Z 32000KT 10/02 A2987 RMK A01 T01040020  RH  056%=      5-min Rain = 0
KWA1 101317Z 07000KT 10/02 A2987 RMK A01 T01010020  RH  057%=      5-min Rain = 0
KWA1 101318Z 28001KT 10/02 A2987 RMK A01 T00990020  RH  058%=      5-min Rain = 0
KWA1 101319Z 33002KT 10/02 A2986 RMK A01 T00980020  RH  058%=      5-min Rain = 0
KWA1 101320Z 33002KT 10/02 A2986 RMK A01 T00980020  RH  059%=      5-min Rain = 0
KWA1 101321Z 02000KT 10/02 A2986 RMK A01 T00980020  RH  058%=      5-min Rain = 0
KWA1 101322Z 31001KT 10/02 A2986 RMK A01 T00980020  RH  058%=      5-min Rain = 0
KWA1 101323Z 02001KT 10/02 A2986 RMK A01 T00960020  RH  059%=      5-min Rain = 0
KWA1 101324Z 03002KT 10/02 A2986 RMK A01 T00960020  RH  059%=      5-min Rain = 0
KWA1 101325Z 30002KT 10/02 A2987 RMK A01 T00960020  RH  059%=      5-min Rain = 0
KWA1 101326Z 26004KT 09/02 A2987 RMK A01 T00940019  RH  060%=      5-min Rain = 0
KWA1 101327Z 26003KT 09/02 A2987 RMK A01 T00930020  RH  061%=      5-min Rain = 0
KWA1 101328Z 29002KT 09/02 A2987 RMK A01 T00930020  RH  060%=      5-min Rain = 0
KWA1 101329Z 26003KT 09/02 A2987 RMK A01 T00940021  RH  060%=      5-min Rain = 0
KWA1 101330Z 23002KT 10/02 A2987 RMK A01 T00960021  RH  060%=      5-min Rain = 0
KWA1 101331Z 20002KT 10/02 A2986 RMK A01 T00970021  RH  059%=      5-min Rain = 0
KWA1 101332Z 20002KT 10/02 A2986 RMK A01 T00980022  RH  059%=      5-min Rain = 0
KWA1 101333Z 24002KT 10/02 A2986 RMK A01 T00980021  RH  059%=      5-min Rain = 0
KWA1 101334Z 23003KT 10/02 A2986 RMK A01 T00980021  RH  059%=      5-min Rain = 0
KWA1 101335Z 23004KT 10/02 A2986 RMK A01 T00970021  RH  059%=      5-min Rain = 0
KWA1 101336Z 21003KT 09/02 A2986 RMK A01 T00940020  RH  060%=      5-min Rain = 0
KWA1 101337Z 21003KT 09/02 A2986 RMK A01 T00930020  RH  060%=      5-min Rain = 0
KWA1 101338Z 22004KT 09/02 A2986 RMK A01 T00930020  RH  061%=      5-min Rain = 0
KWA1 101339Z 22004KT 09/02 A2986 RMK A01 T00920020  RH  061%=      5-min Rain = 0
KWA1 101340Z 22005KT 09/02 A2986 RMK A01 T00920021  RH  061%=      5-min Rain = 0
KWA1 101341Z 22006KT 09/02 A2986 RMK A01 T00920021  RH  061%=      5-min Rain = 0
KWA1 101342Z 23006KT 09/02 A2986 RMK A01 T00920021  RH  061%=      5-min Rain = 0
KWA1 101343Z 22005KT 09/02 A2986 RMK A01 T00930021  RH  061%=      5-min Rain = 0
KWA1 101344Z 22006KT 09/02 A2986 RMK A01 T00910020  RH  061%=      5-min Rain = 0
KWA1 101345Z 22007KT 09/02 A2986 RMK A01 T00900021  RH  062%=      5-min Rain = 0
KWA1 101346Z 24006KT 09/02 A2986 RMK A01 T00920023  RH  062%=      5-min Rain = 0
KWA1 101347Z 23006KT 09/02 A2986 RMK A01 T00940023  RH  061%=      5-min Rain = 0
KWA1 101348Z 23010KT 09/02 A2986 RMK A01 T00940023  RH  061%=      5-min Rain = 0
KWA1 101349Z 24007KT 10/03 A2986 RMK A01 T00990026  RH  060%=      5-min Rain = 0
KWA1 101350Z 23008KT 10/02 A2986 RMK A01 T00980023  RH  060%=      5-min Rain = 0
KWA1 101351Z 24008KT 10/02 A2986 RMK A01 T00960024  RH  061%=      5-min Rain = 0
KWA1 101352Z 25007KT 10/02 A2986 RMK A01 T00960024  RH  061%=      5-min Rain = 0
KWA1 101353Z 25007KT 09/02 A2986 RMK A01 T00920023  RH  062%=      5-min Rain = 0
KWA1 101354Z 24008KT 09/02 A2986 RMK A01 T00910024  RH  063%=      5-min Rain = 0
KWA1 101355Z 25006KT 10/03 A2986 RMK A01 T00960027  RH  062%=      5-min Rain = 0
KWA1 101356Z 25007KT 10/03 A2986 RMK A01 T01010027  RH  060%=      5-min Rain = 0
KWA1 101357Z 24006KT 10/03 A2986 RMK A01 T01020027  RH  060%=      5-min Rain = 0
KWA1 101358Z 25005KT 10/03 A2986 RMK A01 T00990026  RH  060%=      5-min Rain = 0
KWA1 101359Z 25005KT 10/03 A2986 RMK A01 T00990026  RH  061%=      5-min Rain = 0
KWA1 101400Z 26003KT 10/03 A2986 RMK A01 T00990026  RH  061%=      5-min Rain = 0
KWA1 101401Z 25006KT 10/03 A2986 RMK A01 T00980026  RH  061%=      5-min Rain = 0
KWA1 101402Z 25006KT 10/03 A2986 RMK A01 T00970026  RH  061%=      5-min Rain = 0
KWA1 101403Z 24005KT 10/03 A2986 RMK A01 T00970027  RH  062%=      5-min Rain = 0
KWA1 101404Z 21006KT 10/03 A2986 RMK A01 T00990028  RH  061%=      5-min Rain = 0
KWA1 101405Z 22005KT 10/03 A2986 RMK A01 T01020028  RH  060%=      5-min Rain = 0
KWA1 101406Z 23004KT 10/03 A2986 RMK A01 T01010027  RH  060%=      5-min Rain = 0
KWA1 101407Z 23004KT 10/03 A2986 RMK A01 T01000027  RH  060%=      5-min Rain = 0
KWA1 101408Z 23005KT 10/03 A2987 RMK A01 T00990027  RH  061%=      5-min Rain = 0
KWA1 101409Z 25005KT 10/03 A2987 RMK A01 T01000029  RH  061%=      5-min Rain = 0
KWA1 101410Z 25004KT 10/03 A2987 RMK A01 T01020029  RH  060%=      5-min Rain = 0
KWA1 101411Z 27005KT 10/03 A2987 RMK A01 T01030029  RH  060%=      5-min Rain = 0
KWA1 101412Z 28005KT 10/03 A2987 RMK A01 T01030029  RH  060%=      5-min Rain = 0
KWA1 101413Z 26005KT 10/03 A2987 RMK A01 T01010029  RH  061%=      5-min Rain = 0
KWA1 101414Z 25005KT 10/03 A2987 RMK A01 T01010029  RH  061%=      5-min Rain = 0
KWA1 101415Z 26004KT 10/03 A2986 RMK A01 T01000029  RH  061%=      5-min Rain = 0
KWA1 101416Z 25004KT 10/03 A2986 RMK A01 T01000029  RH  061%=      5-min Rain = 0
KWA1 101417Z 24004KT 10/03 A2986 RMK A01 T00990029  RH  062%=      5-min Rain = 0
KWA1 101418Z 24003KT 10/03 A2986 RMK A01 T00990029  RH  062%=      5-min Rain = 0
KWA1 101419Z 24004KT 10/03 A2986 RMK A01 T00990029  RH  062%=      5-min Rain = 0
KWA1 101420Z 23004KT 10/03 A2986 RMK A01 T00990030  RH  062%=      5-min Rain = 0
KWA1 101421Z 25003KT 10/03 A2986 RMK A01 T00990030  RH  062%=      5-min Rain = 0
KWA1 101422Z 24002KT 10/03 A2986 RMK A01 T00990030  RH  062%=      5-min Rain = 0
KWA1 101423Z 24004KT 10/03 A2986 RMK A01 T01000030  RH  062%=      5-min Rain = 0
KWA1 101424Z 25004KT 10/03 A2986 RMK A01 T00990031  RH  062%=      5-min Rain = 0
KWA1 101425Z 26004KT 10/03 A2986 RMK A01 T00990031  RH  063%=      5-min Rain = 0
KWA1 101426Z 25003KT 10/03 A2986 RMK A01 T00990031  RH  063%=      5-min Rain = 0
KWA1 101427Z 25003KT 10/03 A2986 RMK A01 T00990031  RH  063%=      5-min Rain = 0
KWA1 101428Z 24003KT 10/03 A2986 RMK A01 T01000032  RH  063%=      5-min Rain = 0
KWA1 101429Z 25003KT 10/03 A2986 RMK A01 T01010032  RH  062%=      5-min Rain = 0
KWA1 101430Z 23004KT 10/03 A2986 RMK A01 T01010032  RH  062%=      5-min Rain = 0
KWA1 101431Z 24002KT 10/03 A2986 RMK A01 T01020033  RH  062%=      5-min Rain = 0
KWA1 101432Z 22002KT 10/03 A2986 RMK A01 T01030034  RH  062%=      5-min Rain = 0
KWA1 101433Z 22003KT 10/03 A2986 RMK A01 T01040034  RH  062%=      5-min Rain = 0
KWA1 101434Z 26003KT 11/03 A2986 RMK A01 T01050034  RH  061%=      5-min Rain = 0
KWA1 101435Z 25004KT 11/04 A2986 RMK A01 T01050035  RH  062%=      5-min Rain = 0
KWA1 101436Z 26004KT 11/04 A2986 RMK A01 T01050036  RH  062%=      5-min Rain = 0
KWA1 101437Z 22006KT 11/04 A2986 RMK A01 T01060036  RH  062%=      5-min Rain = 0
KWA1 101438Z 22003KT 11/04 A2986 RMK A01 T01080036  RH  061%=      5-min Rain = 0
KWA1 101439Z 25002KT 11/04 A2986 RMK A01 T01100037  RH  061%=      5-min Rain = 0
KWA1 101440Z 23003KT 11/04 A2986 RMK A01 T01110039  RH  061%=      5-min Rain = 0
KWA1 101441Z 22005KT 11/04 A2986 RMK A01 T01100039  RH  061%=      5-min Rain = 0
KWA1 101442Z 20006KT 11/04 A2986 RMK A01 T01120037  RH  060%=      5-min Rain = 0
KWA1 101443Z 20006KT 11/04 A2985 RMK A01 T01140038  RH  060%=      5-min Rain = 0
KWA1 101444Z 23005KT 12/04 A2986 RMK A01 T01150039  RH  060%=      5-min Rain = 0
KWA1 101445Z 22005KT 12/04 A2986 RMK A01 T01150038  RH  059%=      5-min Rain = 0
KWA1 101446Z 22005KT 12/04 A2986 RMK A01 T01150038  RH  059%=      5-min Rain = 0
KWA1 101447Z 21006KT 12/04 A2986 RMK A01 T01160039  RH  059%=      5-min Rain = 0
KWA1 101448Z 21008KT 12/04 A2986 RMK A01 T01170039  RH  059%=      5-min Rain = 0
KWA1 101449Z 20009KT 12/04 A2986 RMK A01 T01180038  RH  058%=      5-min Rain = 0
KWA1 101450Z 19008KT 12/04 A2986 RMK A01 T01180037  RH  058%=      5-min Rain = 0
KWA1 101451Z 18009KT 12/04 A2985 RMK A01 T01190038  RH  058%=      5-min Rain = 0
KWA1 101452Z 19009KT 12/04 A2985 RMK A01 T01190038  RH  058%=      5-min Rain = 0
KWA1 101453Z 19009KT 12/04 A2985 RMK A01 T01190039  RH  058%=      5-min Rain = 0
KWA1 101454Z 19012KT 12/04 A2985 RMK A01 T01190038  RH  058%=      5-min Rain = 0
KWA1 101455Z 18012KT 12/04 A2985 RMK A01 T01190039  RH  058%=      5-min Rain = 0
KWA1 101456Z 18011KT 12/04 A2984 RMK A01 T01190039  RH  058%=      5-min Rain = 0
KWA1 101457Z 18014KT 12/04 A2984 RMK A01 T01200039  RH  058%=      5-min Rain = 0
KWA1 101458Z 18014KT 12/04 A2984 RMK A01 T01210039  RH  057%=      5-min Rain = 0
KWA1 101459Z 18014KT 12/04 A2984 RMK A01 T01220041  RH  058%=      5-min Rain = 0
KWA1 101500Z 18013KT 12/04 A2984 RMK A01 T01230042  RH  058%=      5-min Rain = 0
KWA1 101501Z 17016KT 12/04 A2984 RMK A01 T01230041  RH  057%=      5-min Rain = 0
KWA1 101502Z 17013KT 12/04 A2984 RMK A01 T01240040  RH  057%=      5-min Rain = 0
KWA1 101503Z 18016KT 12/04 A2984 RMK A01 T01240041  RH  057%=      5-min Rain = 0
KWA1 101504Z 18014KT 12/04 A2984 RMK A01 T01240040  RH  057%=      5-min Rain = 0
KWA1 101505Z 18011KT 12/04 A2984 RMK A01 T01240041  RH  057%=      5-min Rain = 0
KWA1 101506Z 18014KT 12/04 A2984 RMK A01 T01240040  RH  057%=      5-min Rain = 0
KWA1 101507Z 19012KT 13/04 A2985 RMK A01 T01250040  RH  056%=      5-min Rain = 0
KWA1 101508Z 19009KT 13/04 A2985 RMK A01 T01250040  RH  056%=      5-min Rain = 0
KWA1 101509Z 18009KT 13/04 A2985 RMK A01 T01250041  RH  056%=      5-min Rain = 0
KWA1 101510Z 19007KT 13/04 A2985 RMK A01 T01250041  RH  056%=      5-min Rain = 0
KWA1 101511Z 19005KT 13/04 A2985 RMK A01 T01250040  RH  056%=      5-min Rain = 0
KWA1 101512Z 19007KT 13/04 A2985 RMK A01 T01260040  RH  056%=      5-min Rain = 0
KWA1 101513Z 18005KT 13/04 A2986 RMK A01 T01270039  RH  055%=      5-min Rain = 0
KWA1 101514Z 22003KT 13/04 A2986 RMK A01 T01270040  RH  055%=      5-min Rain = 0
KWA1 101515Z 24004KT 13/04 A2986 RMK A01 T01280040  RH  055%=      5-min Rain = 0
KWA1 101516Z 23006KT 13/04 A2986 RMK A01 T01290039  RH  055%=      5-min Rain = 0
KWA1 101517Z 22006KT 13/04 A2986 RMK A01 T01290041  RH  055%=      5-min Rain = 0
KWA1 101518Z 23005KT 13/04 A2986 RMK A01 T01310041  RH  055%=      5-min Rain = 0
KWA1 101519Z 22006KT 13/04 A2986 RMK A01 T01320041  RH  054%=      5-min Rain = 0
KWA1 101520Z 24005KT 13/04 A2986 RMK A01 T01320041  RH  054%=      5-min Rain = 0
KWA1 101521Z 24004KT 13/04 A2986 RMK A01 T01320041  RH  054%=      5-min Rain = 0
KWA1 101522Z 21004KT 13/04 A2986 RMK A01 T01330042  RH  054%=      5-min Rain = 0
KWA1 101523Z 22005KT 13/04 A2985 RMK A01 T01340041  RH  053%=      5-min Rain = 0
KWA1 101524Z 22006KT 13/04 A2986 RMK A01 T01340041  RH  053%=      5-min Rain = 0
KWA1 101525Z 24009KT 14/04 A2986 RMK A01 T01350041  RH  053%=      5-min Rain = 0
KWA1 101526Z 22007KT 14/04 A2985 RMK A01 T01350040  RH  053%=      5-min Rain = 0
KWA1 101527Z 21007KT 14/04 A2985 RMK A01 T01360040  RH  052%=      5-min Rain = 0
KWA1 101528Z 21007KT 14/04 A2985 RMK A01 T01360043  RH  053%=      5-min Rain = 0
KWA1 101529Z 22005KT 14/04 A2985 RMK A01 T01380044  RH  053%=      5-min Rain = 0
KWA1 101530Z 22006KT 14/04 A2985 RMK A01 T01390044  RH  053%=      5-min Rain = 0
KWA1 101531Z 20008G14KT 14/04 A2985 RMK A01 T01390040  RH  051%=      5-min Rain = 0
KWA1 101532Z 21009G15KT 14/04 A2985 RMK A01 T01390038  RH  051%=      5-min Rain = 0
KWA1 101533Z 19011KT 14/04 A2985 RMK A01 T01390038  RH  051%=      5-min Rain = 0
KWA1 101534Z 20013KT 14/04 A2985 RMK A01 T01390040  RH  051%=      5-min Rain = 0
KWA1 101535Z 20008G13KT 14/04 A2984 RMK A01 T01400041  RH  051%=      5-min Rain = 0
KWA1 101536Z 18006KT 14/04 A2984 RMK A01 T01410041  RH  051%=      5-min Rain = 0
KWA1 101537Z 17011KT 14/04 A2984 RMK A01 T01410041  RH  051%=      5-min Rain = 0
KWA1 101538Z 17010KT 14/04 A2984 RMK A01 T01420042  RH  051%=      5-min Rain = 0
KWA1 101539Z 18010KT 14/04 A2984 RMK A01 T01420041  RH  050%=      5-min Rain = 0
KWA1 101540Z 18010KT 14/04 A2984 RMK A01 T01420041  RH  050%=      5-min Rain = 0
KWA1 101541Z 18009KT 14/04 A2984 RMK A01 T01430042  RH  050%=      5-min Rain = 0
KWA1 101542Z 17011KT 14/04 A2984 RMK A01 T01440042  RH  050%=      5-min Rain = 0
KWA1 101543Z 19009KT 14/04 A2984 RMK A01 T01430041  RH  050%=      5-min Rain = 0
KWA1 101544Z 19013KT 14/04 A2984 RMK A01 T01430042  RH  050%=      5-min Rain = 0
KWA1 101545Z 19011KT 14/04 A2984 RMK A01 T01440041  RH  050%=      5-min Rain = 0
KWA1 101546Z 18010KT 14/04 A2984 RMK A01 T01440041  RH  050%=      5-min Rain = 0
KWA1 101547Z 18014G19KT 15/04 A2984 RMK A01 T01450041  RH  050%=      5-min Rain = 0
KWA1 101548Z 18013G18KT 15/04 A2983 RMK A01 T01460042  RH  050%=      5-min Rain = 0
KWA1 101549Z 19013KT 15/04 A2983 RMK A01 T01460042  RH  050%=      5-min Rain = 0
KWA1 101550Z 18013G18KT 15/04 A2983 RMK A01 T01460042  RH  050%=      5-min Rain = 0
KWA1 101551Z 19017KT 15/04 A2983 RMK A01 T01470043  RH  050%=      5-min Rain = 0
KWA1 101552Z 18014KT 15/04 A2983 RMK A01 T01470043  RH  050%=      5-min Rain = 0
KWA1 101553Z 19016G21KT 15/04 A2983 RMK A01 T01480044  RH  050%=      5-min Rain = 0
KWA1 101554Z 20015G20KT 15/04 A2983 RMK A01 T01490042  RH  049%=      5-min Rain = 0
KWA1 101555Z 19014KT 15/04 A2983 RMK A01 T01490043  RH  049%=      5-min Rain = 0
KWA1 101556Z 18017G22KT 15/04 A2983 RMK A01 T01490042  RH  049%=      5-min Rain = 0
KWA1 101557Z 20016G21KT 15/04 A2984 RMK A01 T01500042  RH  049%=      5-min Rain = 0
KWA1 101558Z 20014KT 15/04 A2984 RMK A01 T01490042  RH  048%=      5-min Rain = 0
KWA1 101559Z 21013G18KT 15/04 A2984 RMK A01 T01500042  RH  049%=      5-min Rain = 0
KWA1 101600Z 19014G20KT 15/04 A2984 RMK A01 T01510043  RH  048%=      5-min Rain = 0
KWA1 101601Z 21016G21KT 15/04 A2984 RMK A01 T01520042  RH  048%=      5-min Rain = 0
KWA1 101602Z 20013KT 15/04 A2984 RMK A01 T01520043  RH  048%=      5-min Rain = 0
KWA1 101603Z 20016KT 15/04 A2984 RMK A01 T01530042  RH  048%=      5-min Rain = 0
KWA1 101604Z 20011KT 15/04 A2984 RMK A01 T01540043  RH  048%=      5-min Rain = 0
KWA1 101605Z 20014KT 16/04 A2984 RMK A01 T01550044  RH  047%=      5-min Rain = 0
KWA1 101606Z 21011KT 16/04 A2984 RMK A01 T01550042  RH  047%=      5-min Rain = 0
KWA1 101607Z 20017G25KT 16/04 A2984 RMK A01 T01550043  RH  047%=      5-min Rain = 0
KWA1 101608Z 21017KT 16/04 A2984 RMK A01 T01560043  RH  047%=      5-min Rain = 0
KWA1 101609Z 20019KT 16/04 A2984 RMK A01 T01570043  RH  047%=      5-min Rain = 0
KWA1 101610Z 21013G18KT 16/04 A2984 RMK A01 T01580042  RH  046%=      5-min Rain = 0
KWA1 101611Z 21008KT 16/05 A2984 RMK A01 T01580045  RH  047%=      5-min Rain = 0
KWA1 101612Z 19011KT 16/05 A2984 RMK A01 T01600046  RH  047%=      5-min Rain = 0
KWA1 101613Z 20011KT 16/04 A2984 RMK A01 T01610044  RH  046%=      5-min Rain = 0
KWA1 101614Z 21011KT 16/05 A2984 RMK A01 T01620046  RH  046%=      5-min Rain = 0
KWA1 101615Z 20009KT 16/05 A2984 RMK A01 T01630046  RH  046%=      5-min Rain = 0
KWA1 101616Z 20012KT 16/05 A2984 RMK A01 T01640046  RH  045%=      5-min Rain = 0
KWA1 101617Z 20007G13KT 16/04 A2984 RMK A01 T01630044  RH  045%=      5-min Rain = 0
KWA1 101618Z 20014KT 16/05 A2984 RMK A01 T01630045  RH  046%=      5-min Rain = 0
KWA1 101619Z 19011KT 16/04 A2984 RMK A01 T01630044  RH  045%=      5-min Rain = 0
KWA1 101620Z 19008KT 16/05 A2984 RMK A01 T01630045  RH  045%=      5-min Rain = 0
KWA1 101621Z 19010KT 17/05 A2984 RMK A01 T01650046  RH  045%=      5-min Rain = 0
KWA1 101622Z 19012G17KT 17/05 A2984 RMK A01 T01660045  RH  045%=      5-min Rain = 0
KWA1 101623Z 20011KT 17/05 A2984 RMK A01 T01660045  RH  045%=      5-min Rain = 0
KWA1 101624Z 19012KT 17/05 A2984 RMK A01 T01660045  RH  045%=      5-min Rain = 0
KWA1 101625Z 21011KT 17/05 A2983 RMK A01 T01670045  RH  044%=      5-min Rain = 0
KWA1 101626Z 20010G15KT 17/05 A2983 RMK A01 T01680046  RH  044%=      5-min Rain = 0
KWA1 101627Z 21018KT 17/05 A2983 RMK A01 T01690046  RH  044%=      5-min Rain = 0
KWA1 101628Z 20018KT 17/05 A2983 RMK A01 T01680045  RH  044%=      5-min Rain = 0
KWA1 101629Z 20016G22KT 17/05 A2983 RMK A01 T01680046  RH  044%=      5-min Rain = 0
KWA1 101630Z 20018G24KT 17/05 A2983 RMK A01 T01690045  RH  044%=      5-min Rain = 0
KWA1 101631Z 20013G21KT 17/05 A2984 RMK A01 T01700046  RH  044%=      5-min Rain = 0
KWA1 101632Z 20021G28KT 17/05 A2984 RMK A01 T01710046  RH  043%=      5-min Rain = 0
KWA1 101633Z 21021G27KT 17/04 A2984 RMK A01 T01700043  RH  043%=      5-min Rain = 0
KWA1 101634Z 21017KT 17/04 A2984 RMK A01 T01690044  RH  044%=      5-min Rain = 0
KWA1 101635Z 20014G20KT 17/05 A2984 RMK A01 T01690045  RH  044%=      5-min Rain = 0
KWA1 101636Z 20018KT 17/05 A2984 RMK A01 T01710046  RH  043%=      5-min Rain = 0
KWA1 101637Z 21021G27KT 17/05 A2984 RMK A01 T01710045  RH  043%=      5-min Rain = 0
KWA1 101638Z 20022KT 17/04 A2983 RMK A01 T01690043  RH  043%=      5-min Rain = 0
KWA1 101639Z 21020G25KT 17/04 A2983 RMK A01 T01680043  RH  043%=      5-min Rain = 0
KWA1 101640Z 21019KT 17/04 A2983 RMK A01 T01680043  RH  044%=      5-min Rain = 0
KWA1 101641Z 20019KT 17/04 A2983 RMK A01 T01680043  RH  043%=      5-min Rain = 0
KWA1 101642Z 20016KT 17/04 A2982 RMK A01 T01680044  RH  044%=      5-min Rain = 0
KWA1 101643Z 19011KT 17/05 A2982 RMK A01 T01680045  RH  044%=      5-min Rain = 0
KWA1 101644Z 19014KT 17/05 A2982 RMK A01 T01690045  RH  044%=      5-min Rain = 0
KWA1 101645Z 19010G17KT 17/05 A2982 RMK A01 T01690046  RH  044%=      5-min Rain = 0
KWA1 101646Z 19018KT 17/05 A2982 RMK A01 T01690045  RH  044%=      5-min Rain = 0
KWA1 101647Z 19017G22KT 17/05 A2982 RMK A01 T01700046  RH  044%=      5-min Rain = 0
KWA1 101648Z 19019G24KT 17/05 A2981 RMK A01 T01700045  RH  044%=      5-min Rain = 0
KWA1 101649Z 20020G25KT 17/05 A2981 RMK A01 T01700045  RH  043%=      5-min Rain = 0
KWA1 101650Z 20020KT 17/05 A2981 RMK A01 T01710046  RH  044%=      5-min Rain = 0
KWA1 101651Z 19022KT 17/05 A2981 RMK A01 T01720046  RH  043%=      5-min Rain = 0
KWA1 101652Z 20021G28KT 17/05 A2981 RMK A01 T01730047  RH  043%=      5-min Rain = 0
KWA1 101653Z 19023KT 17/05 A298 RMK A01 T01740047  RH  043%=      5-min Rain = 0
KWA1 101654Z 19021KT 17/05 A298 RMK A01 T01740047  RH  043%=      5-min Rain = 0
KWA1 101655Z 19025G31KT 18/05 A298 RMK A01 T01750048  RH  043%=      5-min Rain = 0
KWA1 101656Z 19024G29KT 18/05 A298 RMK A01 T01760048  RH  043%=      5-min Rain = 0
KWA1 101657Z 19023G30KT 18/05 A2979 RMK A01 T01770047  RH  042%=      5-min Rain = 0
KWA1 101658Z 19026G33KT 18/05 A2979 RMK A01 T01760046  RH  042%=      5-min Rain = 0
KWA1 101659Z 19029KT 17/04 A2979 RMK A01 T01730044  RH  042%=      5-min Rain = 0
KWA1 101700Z 19029KT 17/04 A2978 RMK A01 T01720044  RH  043%=      5-min Rain = 0
KWA1 101701Z 19026G31KT 17/05 A2978 RMK A01 T01720045  RH  043%=      5-min Rain = 0
KWA1 101702Z 18024G31KT 17/05 A2978 RMK A01 T01740046  RH  043%=      5-min Rain = 0
KWA1 101703Z 19024G29KT 18/05 A2978 RMK A01 T01750047  RH  043%=      5-min Rain = 0
KWA1 101704Z 19020G27KT 18/05 A2978 RMK A01 T01770049  RH  043%=      5-min Rain = 0
KWA1 101705Z 19023KT 18/05 A2978 RMK A01 T01800050  RH  042%=      5-min Rain = 0
KWA1 101706Z 19026KT 18/05 A2978 RMK A01 T01800048  RH  042%=      5-min Rain = 0
KWA1 101707Z 20025G30KT 18/05 A2979 RMK A01 T01800047  RH  041%=      5-min Rain = 0
KWA1 101708Z 20027G32KT 18/05 A2979 RMK A01 T01820049  RH  041%=      5-min Rain = 0
KWA1 101709Z 19025G33KT 18/05 A2979 RMK A01 T01820047  RH  041%=      5-min Rain = 0
KWA1 101710Z 19026KT 18/05 A2979 RMK A01 T01820048  RH  041%=      5-min Rain = 0
KWA1 101711Z 19028KT 18/05 A2979 RMK A01 T01820048  RH  041%=      5-min Rain = 0
KWA1 101712Z 19024KT 18/05 A2979 RMK A01 T01820047  RH  041%=      5-min Rain = 0
KWA1 101713Z 20026KT 18/05 A2979 RMK A01 T01840049  RH  041%=      5-min Rain = 0
KWA1 101714Z 19021G27KT 18/05 A2979 RMK A01 T01830047  RH  041%=      5-min Rain = 0
KWA1 101715Z 19023G31KT 18/05 A2979 RMK A01 T01830047  RH  041%=      5-min Rain = 0
KWA1 101716Z 19025G31KT 18/05 A2979 RMK A01 T01820046  RH  040%=      5-min Rain = 0
KWA1 101717Z 20027KT 18/05 A2978 RMK A01 T01820047  RH  041%=      5-min Rain = 0
KWA1 101718Z 19025G30KT 18/05 A2978 RMK A01 T01830047  RH  041%=      5-min Rain = 0
KWA1 101719Z 19028G33KT 18/05 A2978 RMK A01 T01840047  RH  040%=      5-min Rain = 0
KWA1 101720Z 19025G30KT 18/05 A2978 RMK A01 T01840046  RH  040%=      5-min Rain = 0
KWA1 101721Z 19022G28KT 19/05 A2978 RMK A01 T01850048  RH  041%=      5-min Rain = 0
KWA1 101722Z 19022KT 19/05 A2978 RMK A01 T01880051  RH  041%=      5-min Rain = 0
KWA1 101723Z 20027G33KT 19/05 A2978 RMK A01 T01900049  RH  039%=      5-min Rain = 0
KWA1 101724Z 20027KT 19/05 A2978 RMK A01 T01880045  RH  039%=      5-min Rain = 0
KWA1 101725Z 19025KT 19/05 A2978 RMK A01 T01860045  RH  039%=      5-min Rain = 0
KWA1 101726Z 19025KT 19/05 A2978 RMK A01 T01850045  RH  039%=      5-min Rain = 0
KWA1 101727Z 19025G30KT 18/04 A2978 RMK A01 T01840044  RH  039%=      5-min Rain = 0
KWA1 101728Z 20025KT 18/04 A2978 RMK A01 T01840044  RH  040%=      5-min Rain = 0
KWA1 101729Z 19025KT 18/04 A2978 RMK A01 T01840044  RH  040%=      5-min Rain = 0
KWA1 101730Z 19026G31KT 19/05 A2978 RMK A01 T01860045  RH  039%=      5-min Rain = 0
KWA1 101731Z 19022KT 19/05 A2978 RMK A01 T01870046  RH  039%=      5-min Rain = 0
KWA1 101732Z 19020KT 19/05 A2978 RMK A01 T01890047  RH  039%=      5-min Rain = 0
KWA1 101733Z 19025G30KT 19/05 A2978 RMK A01 T01910047  RH  039%=      5-min Rain = 0
KWA1 101734Z 19022KT 19/05 A2978 RMK A01 T01920047  RH  038%=      5-min Rain = 0
KWA1 101735Z 20021KT 19/05 A2978 RMK A01 T01920047  RH  039%=      5-min Rain = 0
KWA1 101736Z 19022KT 19/05 A2978 RMK A01 T01920047  RH  039%=      5-min Rain = 0
KWA1 101737Z 20021KT 19/05 A2978 RMK A01 T01920048  RH  039%=      5-min Rain = 0
KWA1 101738Z 20019KT 19/05 A2978 RMK A01 T01920048  RH  039%=      5-min Rain = 0
KWA1 101739Z 20019KT 19/05 A2978 RMK A01 T01930047  RH  038%=      5-min Rain = 0
KWA1 101740Z 20018KT 19/05 A2978 RMK A01 T01940048  RH  038%=      5-min Rain = 0
KWA1 101741Z 19020KT 20/05 A2978 RMK A01 T01970049  RH  038%=      5-min Rain = 0
KWA1 101742Z 20017KT 20/05 A2979 RMK A01 T01980050  RH  038%=      5-min Rain = 0
KWA1 101743Z 21022KT 20/05 A2979 RMK A01 T01980048  RH  037%=      5-min Rain = 0
KWA1 101744Z 20021KT 20/05 A2979 RMK A01 T01990047  RH  037%=      5-min Rain = 0
KWA1 101745Z 20020KT 20/05 A2979 RMK A01 T01980047  RH  037%=      5-min Rain = 0
KWA1 101746Z 21019KT 20/05 A2979 RMK A01 T01970047  RH  037%=      5-min Rain = 0
KWA1 101747Z 21016KT 20/05 A2979 RMK A01 T01970048  RH  038%=      5-min Rain = 0
KWA1 101748Z 21019KT 20/05 A2979 RMK A01 T01990048  RH  037%=      5-min Rain = 0
KWA1 101749Z 20019KT 20/05 A2979 RMK A01 T01990047  RH  037%=      5-min Rain = 0
KWA1 101750Z 21017KT 20/05 A2979 RMK A01 T01990049  RH  037%=      5-min Rain = 0
KWA1 101751Z 21020KT 20/05 A2979 RMK A01 T02000048  RH  037%=      5-min Rain = 0
KWA1 101752Z 21017KT 20/05 A2979 RMK A01 T02010048  RH  037%=      5-min Rain = 0
KWA1 101753Z 21020G27KT 20/05 A2979 RMK A01 T02030050  RH  037%=      5-min Rain = 0
KWA1 101754Z 21021KT 20/05 A2979 RMK A01 T02040049  RH  036%=      5-min Rain = 0
KWA1 101755Z 21020KT 21/05 A2979 RMK A01 T02050047  RH  036%=      5-min Rain = 0
KWA1 101756Z 21019KT 20/05 A2979 RMK A01 T02030047  RH  036%=      5-min Rain = 0
KWA1 101757Z 20020KT 20/05 A2979 RMK A01 T02030048  RH  036%=      5-min Rain = 0
KWA1 101758Z 20018G23KT 20/05 A2979 RMK A01 T02030048  RH  036%=      5-min Rain = 0
KWA1 101759Z 20016KT 20/05 A2979 RMK A01 T02030050  RH  037%=      5-min Rain = 0
KWA1 101800Z 21018KT 21/05 A2979 RMK A01 T02050049  RH  036%=      5-min Rain = 0
KWA1 101801Z 20020G26KT 21/05 A2979 RMK A01 T02050049  RH  036%=      5-min Rain = 0
KWA1 101802Z 20020G26KT 21/05 A2979 RMK A01 T02050048  RH  036%=      5-min Rain = 0
KWA1 101803Z 19021KT 20/05 A2978 RMK A01 T02040045  RH  035%=      5-min Rain = 0
KWA1 101804Z 19022KT 20/05 A2978 RMK A01 T02020047  RH  036%=      5-min Rain = 0
KWA1 101805Z 19022KT 20/05 A2978 RMK A01 T02020047  RH  036%=      5-min Rain = 0
KWA1 101806Z 18021KT 20/05 A2977 RMK A01 T02020047  RH  036%=      5-min Rain = 0
KWA1 101807Z 18019G24KT 20/05 A2977 RMK A01 T02030049  RH  036%=      5-min Rain = 0
KWA1 101808Z 19018KT 21/05 A2977 RMK A01 T02050049  RH  036%=      5-min Rain = 0
KWA1 101809Z 19019KT 21/05 A2977 RMK A01 T02050048  RH  036%=      5-min Rain = 0
KWA1 101810Z 19018KT 21/05 A2977 RMK A01 T02060049  RH  036%=      5-min Rain = 0
KWA1 101811Z 19017KT 21/05 A2977 RMK A01 T02070049  RH  035%=      5-min Rain = 0
KWA1 101812Z 19021KT 21/05 A2977 RMK A01 T02060047  RH  035%=      5-min Rain = 0
KWA1 101813Z 20019KT 20/05 A2977 RMK A01 T02020045  RH  035%=      5-min Rain = 0
KWA1 101814Z 20022KT 20/05 A2977 RMK A01 T02000045  RH  036%=      5-min Rain = 0
KWA1 101815Z 19019KT 20/04 A2977 RMK A01 T02000043  RH  036%=      5-min Rain = 0
KWA1 101816Z 20022G27KT 20/04 A2977 RMK A01 T02000044  RH  036%=      5-min Rain = 0
KWA1 101817Z 20021KT 20/05 A2977 RMK A01 T02010045  RH  036%=      5-min Rain = 0
KWA1 101818Z 20017KT 20/05 A2977 RMK A01 T02030048  RH  036%=      5-min Rain = 0
KWA1 101819Z 20017KT 21/05 A2977 RMK A01 T02060050  RH  036%=      5-min Rain = 0
KWA1 101820Z 21019KT 21/05 A2976 RMK A01 T02080048  RH  035%=      5-min Rain = 0
KWA1 101821Z 20018KT 21/05 A2976 RMK A01 T02070049  RH  036%=      5-min Rain = 0
KWA1 101822Z 20016KT 21/05 A2976 RMK A01 T02060048  RH  035%=      5-min Rain = 0
KWA1 101823Z 19017KT 21/05 A2976 RMK A01 T02060048  RH  035%=      5-min Rain = 0
KWA1 101824Z 19018KT 21/05 A2976 RMK A01 T02070046  RH  035%=      5-min Rain = 0
KWA1 101825Z 19014KT 21/05 A2976 RMK A01 T02070046  RH  035%=      5-min Rain = 0
KWA1 101826Z 19016G21KT 21/05 A2976 RMK A01 T02080049  RH  035%=      5-min Rain = 0
KWA1 101827Z 19016KT 21/05 A2976 RMK A01 T02070046  RH  035%=      5-min Rain = 0
KWA1 101828Z 19016KT 21/05 A2976 RMK A01 T02060048  RH  035%=      5-min Rain = 0
KWA1 101829Z 19017KT 21/05 A2975 RMK A01 T02090047  RH  035%=      5-min Rain = 0
KWA1 101830Z 19019KT 21/05 A2975 RMK A01 T02090046  RH  034%=      5-min Rain = 0
KWA1 101831Z 19019KT 21/04 A2975 RMK A01 T02090044  RH  034%=      5-min Rain = 0
KWA1 101832Z 19021KT 21/05 A2975 RMK A01 T02080045  RH  034%=      5-min Rain = 0
KWA1 101833Z 19020G25KT 21/05 A2975 RMK A01 T02090045  RH  034%=      5-min Rain = 0
KWA1 101834Z 19020KT 21/05 A2975 RMK A01 T02090045  RH  034%=      5-min Rain = 0
KWA1 101835Z 19020KT 21/04 A2975 RMK A01 T02100044  RH  034%=      5-min Rain = 0
KWA1 101836Z 19019KT 21/05 A2975 RMK A01 T02110045  RH  034%=      5-min Rain = 0
KWA1 101837Z 20020KT 21/05 A2974 RMK A01 T02120045  RH  033%=      5-min Rain = 0
KWA1 101838Z 19018KT 21/05 A2974 RMK A01 T02130045  RH  033%=      5-min Rain = 0
KWA1 101839Z 19018KT 21/05 A2974 RMK A01 T02130045  RH  033%=      5-min Rain = 0
KWA1 101840Z 18016KT 21/05 A2974 RMK A01 T02130046  RH  033%=      5-min Rain = 0
KWA1 101841Z 18012KT 21/05 A2974 RMK A01 T02140047  RH  034%=      5-min Rain = 0
KWA1 101842Z 19014KT 22/05 A2974 RMK A01 T02170050  RH  034%=      5-min Rain = 0
KWA1 101843Z 20018KT 22/05 A2974 RMK A01 T02190048  RH  033%=      5-min Rain = 0
KWA1 101844Z 20016G21KT 22/05 A2974 RMK A01 T02210046  RH  032%=      5-min Rain = 0
KWA1 101845Z 19015KT 22/05 A2974 RMK A01 T02210047  RH  032%=      5-min Rain = 0
KWA1 101846Z 18017KT 22/05 A2973 RMK A01 T02210048  RH  032%=      5-min Rain = 0
KWA1 101847Z 19015G20KT 22/05 A2973 RMK A01 T02220048  RH  032%=      5-min Rain = 0
KWA1 101848Z 18019KT 22/05 A2973 RMK A01 T02240048  RH  032%=      5-min Rain = 0
KWA1 101849Z 18017KT 22/05 A2973 RMK A01 T02240046  RH  031%=      5-min Rain = 0
KWA1 101850Z 19019KT 22/05 A2973 RMK A01 T02230047  RH  032%=      5-min Rain = 0
KWA1 101851Z 18019G25KT 22/05 A2972 RMK A01 T02220046  RH  032%=      5-min Rain = 0
KWA1 101852Z 18019KT 22/05 A2972 RMK A01 T02210046  RH  032%=      5-min Rain = 0
KWA1 101853Z 18017G25KT 22/05 A2972 RMK A01 T02210048  RH  032%=      5-min Rain = 0
KWA1 101854Z 17022KT 22/05 A2972 RMK A01 T02230045  RH  031%=      5-min Rain = 0
KWA1 101855Z 17018KT 22/05 A2972 RMK A01 T02210045  RH  032%=      5-min Rain = 0
KWA1 101856Z 18021KT 22/05 A2971 RMK A01 T02220046  RH  032%=      5-min Rain = 0
KWA1 101857Z 18019G24KT 22/05 A2971 RMK A01 T02220045  RH  031%=      5-min Rain = 0
KWA1 101858Z 18022KT 22/05 A2971 RMK A01 T02220045  RH  031%=      5-min Rain = 0
KWA1 101859Z 18026KT 22/04 A2971 RMK A01 T02210043  RH  031%=      5-min Rain = 0
KWA1 101900Z 18025G31KT 22/04 A2971 RMK A01 T02210043  RH  031%=      5-min Rain = 0
KWA1 101901Z 19023G28KT 22/04 A2971 RMK A01 T02190042  RH  031%=      5-min Rain = 0
KWA1 101902Z 19023KT 22/04 A2971 RMK A01 T02190042  RH  031%=      5-min Rain = 0
KWA1 101903Z 19021KT 22/04 A2971 RMK A01 T02190041  RH  031%=      5-min Rain = 0
KWA1 101904Z 19021KT 22/04 A2971 RMK A01 T02190042  RH  031%=      5-min Rain = 0
KWA1 101905Z 19019KT 22/05 A2971 RMK A01 T02190045  RH  032%=      5-min Rain = 0
KWA1 101906Z 19016KT 22/05 A2971 RMK A01 T02220046  RH  032%=      5-min Rain = 0
KWA1 101907Z 19019KT 23/05 A2971 RMK A01 T02250048  RH  032%=      5-min Rain = 0
KWA1 101908Z 18018KT 23/05 A297 RMK A01 T02250047  RH  031%=      5-min Rain = 0
KWA1 101909Z 18020G26KT 22/05 A297 RMK A01 T02230047  RH  032%=      5-min Rain = 0
KWA1 101910Z 18024KT 22/04 A297 RMK A01 T02230044  RH  031%=      5-min Rain = 0
KWA1 101911Z 20020KT 22/04 A297 RMK A01 T02230043  RH  031%=      5-min Rain = 0
KWA1 101912Z 19015KT 22/04 A297 RMK A01 T02220044  RH  031%=      5-min Rain = 0
KWA1 101913Z 20014G20KT 22/05 A297 RMK A01 T02240047  RH  032%=      5-min Rain = 0
KWA1 101914Z 19021KT 23/05 A297 RMK A01 T02270045  RH  031%=      5-min Rain = 0
KWA1 101915Z 18021KT 23/05 A297 RMK A01 T02260045  RH  031%=      5-min Rain = 0
KWA1 101916Z 19018G23KT 22/04 A297 RMK A01 T02240043  RH  031%=      5-min Rain = 0
KWA1 101917Z 19022KT 22/04 A297 RMK A01 T02230044  RH  031%=      5-min Rain = 0
KWA1 101918Z 20019KT 22/04 A297 RMK A01 T02230044  RH  031%=      5-min Rain = 0
KWA1 101919Z 20019G24KT 23/05 A297 RMK A01 T02250045  RH  031%=      5-min Rain = 0
KWA1 101920Z 21020KT 23/04 A297 RMK A01 T02260043  RH  030%=      5-min Rain = 0
KWA1 101921Z 20020G25KT 23/04 A297 RMK A01 T02250043  RH  030%=      5-min Rain = 0
KWA1 101922Z 19022KT 23/04 A297 RMK A01 T02250044  RH  031%=      5-min Rain = 0
KWA1 101923Z 20019KT 22/04 A297 RMK A01 T02230042  RH  031%=      5-min Rain = 0
KWA1 101924Z 19019KT 22/04 A297 RMK A01 T02220044  RH  031%=      5-min Rain = 0
KWA1 101925Z 19019KT 22/04 A297 RMK A01 T02230043  RH  031%=      5-min Rain = 0
KWA1 101926Z 20014KT 22/04 A297 RMK A01 T02240044  RH  031%=      5-min Rain = 0
KWA1 101927Z 19015KT 23/05 A297 RMK A01 T02270048  RH  031%=      5-min Rain = 0
KWA1 101928Z 20020KT 23/05 A297 RMK A01 T02280047  RH  031%=      5-min Rain = 0
KWA1 101929Z 19018KT 23/05 A297 RMK A01 T02260046  RH  031%=      5-min Rain = 0
KWA1 101930Z 19018KT 23/04 A297 RMK A01 T02250044  RH  031%=      5-min Rain = 0
KWA1 101931Z 19017KT 23/05 A297 RMK A01 T02250045  RH  031%=      5-min Rain = 0
KWA1 101932Z 19016KT 23/05 A297 RMK A01 T02260046  RH  031%=      5-min Rain = 0
KWA1 101933Z 19016KT 23/05 A297 RMK A01 T02270046  RH  031%=      5-min Rain = 0
KWA1 101934Z 20017KT 23/05 A297 RMK A01 T02270047  RH  031%=      5-min Rain = 0
KWA1 101935Z 21016KT 23/05 A297 RMK A01 T02290046  RH  030%=      5-min Rain = 0
KWA1 101936Z 21016KT 23/05 A297 RMK A01 T02310046  RH  030%=      5-min Rain = 0
KWA1 101937Z 19019KT 23/05 A297 RMK A01 T02310046  RH  030%=      5-min Rain = 0
KWA1 101938Z 19020KT 23/04 A297 RMK A01 T02290043  RH  030%=      5-min Rain = 0
KWA1 101939Z 21018KT 23/04 A297 RMK A01 T02280044  RH  030%=      5-min Rain = 0
KWA1 101940Z 20019KT 23/04 A297 RMK A01 T02280044  RH  030%=      5-min Rain = 0
KWA1 101941Z 20021G27KT 23/04 A2969 RMK A01 T02290043  RH  030%=      5-min Rain = 0
KWA1 101942Z 21017KT 23/04 A2969 RMK A01 T02280042  RH  030%=      5-min Rain = 0
KWA1 101943Z 20021KT 23/04 A2969 RMK A01 T02270043  RH  030%=      5-min Rain = 0
KWA1 101944Z 20021KT 23/04 A2969 RMK A01 T02260042  RH  030%=      5-min Rain = 0
KWA1 101945Z 20020KT 23/04 A2969 RMK A01 T02250043  RH  030%=      5-min Rain = 0
KWA1 101946Z 20020G27KT 23/04 A2969 RMK A01 T02270044  RH  030%=      5-min Rain = 0
KWA1 101947Z 21021KT 23/04 A2968 RMK A01 T02290042  RH  030%=      5-min Rain = 0
KWA1 101948Z 21020KT 23/04 A2968 RMK A01 T02270042  RH  030%=      5-min Rain = 0
KWA1 101949Z 21020KT 23/04 A2968 RMK A01 T02270041  RH  030%=      5-min Rain = 0
KWA1 101950Z 20020KT 23/04 A2968 RMK A01 T02280043  RH  030%=      5-min Rain = 0
KWA1 101951Z 20019KT 23/04 A2968 RMK A01 T02290042  RH  030%=      5-min Rain = 0
KWA1 101952Z 20022KT 23/04 A2968 RMK A01 T02300042  RH  029%=      5-min Rain = 0
KWA1 101953Z 21021KT 23/04 A2968 RMK A01 T02290042  RH  029%=      5-min Rain = 0
KWA1 101954Z 21018KT 23/04 A2968 RMK A01 T02280042  RH  030%=      5-min Rain = 0
KWA1 101955Z 21015KT 23/04 A2968 RMK A01 T02270043  RH  030%=      5-min Rain = 0
KWA1 101956Z 20018KT 23/05 A2968 RMK A01 T02290045  RH  030%=      5-min Rain = 0
KWA1 101957Z 20017KT 23/05 A2968 RMK A01 T02320046  RH  030%=      5-min Rain = 0
KWA1 101958Z 19017KT 23/04 A2968 RMK A01 T02340044  RH  029%=      5-min Rain = 0
KWA1 101959Z 20019KT 23/04 A2968 RMK A01 T02340043  RH  029%=      5-min Rain = 0
KWA1 102000Z 20021KT 23/04 A2967 RMK A01 T02320042  RH  029%=      5-min Rain = 0
KWA1 102001Z 20019KT 23/04 A2967 RMK A01 T02310041  RH  029%=      5-min Rain = 0
KWA1 102002Z 20018KT 23/04 A2967 RMK A01 T02300043  RH  029%=      5-min Rain = 0
KWA1 102003Z 20019KT 23/04 A2967 RMK A01 T02310042  RH  029%=      5-min Rain = 0
KWA1 102004Z 19020KT 23/04 A2967 RMK A01 T02310042  RH  029%=      5-min Rain = 0
KWA1 102005Z 18019KT 23/04 A2967 RMK A01 T02310042  RH  029%=      5-min Rain = 0
KWA1 102006Z 18018KT 23/04 A2967 RMK A01 T02310042  RH  029%=      5-min Rain = 0
KWA1 102007Z 18015G21KT 23/04 A2967 RMK A01 T02320043  RH  029%=      5-min Rain = 0
KWA1 102008Z 20022KT 24/04 A2966 RMK A01 T02350044  RH  029%=      5-min Rain = 0
KWA1 102009Z 19021KT 24/04 A2966 RMK A01 T02350041  RH  028%=      5-min Rain = 0
KWA1 102010Z 19018KT 23/04 A2966 RMK A01 T02340041  RH  029%=      5-min Rain = 0
KWA1 102011Z 19020KT 23/04 A2966 RMK A01 T02340042  RH  029%=      5-min Rain = 0
KWA1 102012Z 18019KT 23/04 A2966 RMK A01 T02330042  RH  029%=      5-min Rain = 0
KWA1 102013Z 18018KT 23/04 A2966 RMK A01 T02330043  RH  029%=      5-min Rain = 0
KWA1 102014Z 18016KT 23/05 A2966 RMK A01 T02330045  RH  029%=      5-min Rain = 0
KWA1 102015Z 18018KT 23/04 A2966 RMK A01 T02340044  RH  029%=      5-min Rain = 0
KWA1 102016Z 17020KT 24/04 A2965 RMK A01 T02350043  RH  029%=      5-min Rain = 0
KWA1 102017Z 18020KT 23/04 A2965 RMK A01 T02340043  RH  029%=      5-min Rain = 0
KWA1 102018Z 18018KT 23/04 A2965 RMK A01 T02340044  RH  029%=      5-min Rain = 0
KWA1 102019Z 19019KT 24/04 A2965 RMK A01 T02350044  RH  029%=      5-min Rain = 0
KWA1 102020Z 19017KT 23/04 A2965 RMK A01 T02340044  RH  029%=      5-min Rain = 0
KWA1 102021Z 18019G24KT 23/04 A2965 RMK A01 T02330042  RH  029%=      5-min Rain = 0
KWA1 102022Z 20019G25KT 24/04 A2965 RMK A01 T02350044  RH  029%=      5-min Rain = 0
KWA1 102023Z 19020G25KT 24/04 A2965 RMK A01 T02360043  RH  029%=      5-min Rain = 0
KWA1 102024Z 19023KT 24/04 A2965 RMK A01 T02360041  RH  028%=      5-min Rain = 0
KWA1 102025Z 19021KT 23/04 A2965 RMK A01 T02320039  RH  028%=      5-min Rain = 0
KWA1 102026Z 19021KT 23/04 A2965 RMK A01 T02310040  RH  029%=      5-min Rain = 0
KWA1 102027Z 19018KT 23/04 A2965 RMK A01 T02310040  RH  029%=      5-min Rain = 0
KWA1 102028Z 19019G24KT 23/04 A2965 RMK A01 T02310043  RH  029%=      5-min Rain = 0
KWA1 102029Z 19021KT 23/04 A2964 RMK A01 T02340043  RH  029%=      5-min Rain = 0
KWA1 102030Z 19019G24KT 24/04 A2965 RMK A01 T02350043  RH  029%=      5-min Rain = 0
KWA1 102031Z 18018KT 24/04 A2965 RMK A01 T02350042  RH  029%=      5-min Rain = 0
KWA1 102032Z 18018KT 23/04 A2965 RMK A01 T02340043  RH  029%=      5-min Rain = 0
KWA1 102033Z 18016KT 23/04 A2965 RMK A01 T02340042  RH  029%=      5-min Rain = 0
KWA1 102034Z 19018G23KT 24/04 A2965 RMK A01 T02350043  RH  029%=      5-min Rain = 0
KWA1 102035Z 19020G25KT 24/04 A2965 RMK A01 T02370043  RH  028%=      5-min Rain = 0
KWA1 102036Z 19022KT 24/04 A2965 RMK A01 T02370041  RH  028%=      5-min Rain = 0
KWA1 102037Z 20021KT 24/04 A2965 RMK A01 T02360041  RH  028%=      5-min Rain = 0
KWA1 102038Z 20022KT 24/04 A2965 RMK A01 T02360041  RH  028%=      5-min Rain = 0
KWA1 102039Z 20020KT 24/04 A2965 RMK A01 T02350041  RH  028%=      5-min Rain = 0
KWA1 102040Z 20019G24KT 23/04 A2965 RMK A01 T02340042  RH  029%=      5-min Rain = 0
KWA1 102041Z 20019KT 24/04 A2965 RMK A01 T02350041  RH  028%=      5-min Rain = 0
KWA1 102042Z 21021KT 24/04 A2964 RMK A01 T02350041  RH  028%=      5-min Rain = 0
KWA1 102043Z 20020KT 24/04 A2964 RMK A01 T02360041  RH  028%=      5-min Rain = 0
KWA1 102044Z 19019G25KT 24/04 A2964 RMK A01 T02370043  RH  028%=      5-min Rain = 0
KWA1 102045Z 21020KT 24/04 A2964 RMK A01 T02380043  RH  028%=      5-min Rain = 0
KWA1 102046Z 21021G26KT 24/04 A2964 RMK A01 T02390042  RH  028%=      5-min Rain = 0
KWA1 102047Z 20020KT 24/04 A2964 RMK A01 T02390040  RH  028%=      5-min Rain = 0
KWA1 102048Z 20016G21KT 24/04 A2964 RMK A01 T02370042  RH  028%=      5-min Rain = 0
KWA1 102049Z 18020KT 24/04 A2963 RMK A01 T02380043  RH  028%=      5-min Rain = 0
KWA1 102050Z 19019KT 24/04 A2963 RMK A01 T02390043  RH  028%=      5-min Rain = 0
KWA1 102051Z 20018KT 24/04 A2963 RMK A01 T02390042  RH  028%=      5-min Rain = 0
KWA1 102052Z 20015KT 24/04 A2963 RMK A01 T02390043  RH  028%=      5-min Rain = 0
KWA1 102053Z 20015G22KT 24/04 A2963 RMK A01 T02420043  RH  028%=      5-min Rain = 0
KWA1 102054Z 19021KT 24/04 A2963 RMK A01 T02440043  RH  027%=      5-min Rain = 0
KWA1 102055Z 19017KT 24/04 A2963 RMK A01 T02420042  RH  027%=      5-min Rain = 0
KWA1 102056Z 19018KT 24/04 A2963 RMK A01 T02410042  RH  027%=      5-min Rain = 0
KWA1 102057Z 19018KT 24/04 A2963 RMK A01 T02400041  RH  027%=      5-min Rain = 0
KWA1 102058Z 18021KT 24/04 A2963 RMK A01 T02410043  RH  028%=      5-min Rain = 0
KWA1 102059Z 19024KT 24/04 A2962 RMK A01 T02420041  RH  027%=      5-min Rain = 0
KWA1 102100Z 19022KT 24/04 A2962 RMK A01 T02400040  RH  027%=      5-min Rain = 0
KWA1 102101Z 19020KT 24/04 A2962 RMK A01 T02390041  RH  028%=      5-min Rain = 0
KWA1 102102Z 19022KT 24/04 A2962 RMK A01 T02390041  RH  028%=      5-min Rain = 0
KWA1 102103Z 19019KT 24/04 A2962 RMK A01 T02380041  RH  028%=      5-min Rain = 0
KWA1 102104Z 20019KT 24/04 A2962 RMK A01 T02390042  RH  028%=      5-min Rain = 0
KWA1 102105Z 19020KT 24/04 A2962 RMK A01 T02390042  RH  028%=      5-min Rain = 0
KWA1 102106Z 20020KT 24/04 A2962 RMK A01 T02390041  RH  028%=      5-min Rain = 0
KWA1 102107Z 19018KT 24/04 A2962 RMK A01 T02390042  RH  028%=      5-min Rain = 0
KWA1 102108Z 18021KT 24/04 A2962 RMK A01 T02410042  RH  028%=      5-min Rain = 0
KWA1 102109Z 19018G23KT 24/04 A2963 RMK A01 T02400041  RH  028%=      5-min Rain = 0
KWA1 102110Z 19016G21KT 24/04 A2963 RMK A01 T02410043  RH  028%=      5-min Rain = 0
KWA1 102111Z 19018G23KT 24/04 A2962 RMK A01 T02440043  RH  027%=      5-min Rain = 0
KWA1 102112Z 18020G26KT 24/04 A2962 RMK A01 T02440042  RH  027%=      5-min Rain = 0
KWA1 102113Z 19020KT 24/04 A2962 RMK A01 T02420040  RH  027%=      5-min Rain = 0
KWA1 102114Z 18020KT 24/04 A2963 RMK A01 T02420041  RH  027%=      5-min Rain = 0
KWA1 102115Z 19017G22KT 24/04 A2963 RMK A01 T02410041  RH  027%=      5-min Rain = 0
KWA1 102116Z 19020G25KT 24/04 A2962 RMK A01 T02430042  RH  027%=      5-min Rain = 0
KWA1 102117Z 20022KT 24/04 A2962 RMK A01 T02440039  RH  027%=      5-min Rain = 0
KWA1 102118Z 20020KT 24/04 A2962 RMK A01 T02410038  RH  027%=      5-min Rain = 0
KWA1 102119Z 19019KT 24/04 A2962 RMK A01 T02410040  RH  027%=      5-min Rain = 0
KWA1 102120Z 19021KT 24/04 A2962 RMK A01 T02410040  RH  027%=      5-min Rain = 0
KWA1 102121Z 19020KT 24/04 A2962 RMK A01 T02410039  RH  027%=      5-min Rain = 0
KWA1 102122Z 20020KT 24/04 A2962 RMK A01 T02400039  RH  027%=      5-min Rain = 0
KWA1 102123Z 19023KT 24/04 A2962 RMK A01 T02400039  RH  027%=      5-min Rain = 0
KWA1 102124Z 19020KT 24/04 A2962 RMK A01 T02390038  RH  027%=      5-min Rain = 0
KWA1 102125Z 20017G25KT 24/04 A2962 RMK A01 T02380039  RH  027%=      5-min Rain = 0
KWA1 102126Z 20021KT 24/04 A2962 RMK A01 T02400039  RH  027%=      5-min Rain = 0
KWA1 102127Z 19021KT 24/04 A2962 RMK A01 T02400038  RH  027%=      5-min Rain = 0
KWA1 102128Z 19020KT 24/04 A2962 RMK A01 T02390039  RH  027%=      5-min Rain = 0
KWA1 102129Z 19022G27KT 24/04 A2962 RMK A01 T02390039  RH  027%=      5-min Rain = 0
KWA1 102130Z 19020G26KT 24/04 A2962 RMK A01 T02380037  RH  027%=      5-min Rain = 0
KWA1 102131Z 18019G24KT 24/04 A2961 RMK A01 T02380039  RH  027%=      5-min Rain = 0
KWA1 102132Z 19018G25KT 24/04 A2961 RMK A01 T02390039  RH  027%=      5-min Rain = 0
KWA1 102133Z 18020KT 24/04 A2961 RMK A01 T02400040  RH  027%=      5-min Rain = 0
KWA1 102134Z 19017KT 24/04 A2962 RMK A01 T02410040  RH  027%=      5-min Rain = 0
KWA1 102135Z 19021KT 24/04 A2961 RMK A01 T02410040  RH  027%=      5-min Rain = 0
KWA1 102136Z 19022KT 24/04 A2962 RMK A01 T02400039  RH  027%=      5-min Rain = 0
KWA1 102137Z 19020G25KT 24/04 A2962 RMK A01 T02390038  RH  027%=      5-min Rain = 0
KWA1 102138Z 19022G27KT 24/04 A2962 RMK A01 T02380038  RH  027%=      5-min Rain = 0
KWA1 102139Z 19021G27KT 24/04 A2962 RMK A01 T02380039  RH  027%=      5-min Rain = 0
KWA1 102140Z 19021KT 24/04 A2962 RMK A01 T02370039  RH  027%=      5-min Rain = 0
KWA1 102141Z 19018KT 24/04 A2962 RMK A01 T02370038  RH  027%=      5-min Rain = 0
KWA1 102142Z 19018G24KT 24/04 A2962 RMK A01 T02380040  RH  028%=      5-min Rain = 0
KWA1 102143Z 18021KT 24/04 A2962 RMK A01 T02390038  RH  027%=      5-min Rain = 0
KWA1 102144Z 18020G25KT 24/04 A2962 RMK A01 T02390038  RH  027%=      5-min Rain = 0
KWA1 102145Z 19023KT 24/04 A2962 RMK A01 T02400038  RH  027%=      5-min Rain = 0
KWA1 102146Z 18020KT 24/04 A2962 RMK A01 T02400038  RH  027%=      5-min Rain = 0
KWA1 102147Z 18017KT 24/04 A2962 RMK A01 T02400038  RH  027%=      5-min Rain = 0
KWA1 102148Z 19024KT 24/04 A2962 RMK A01 T02410038  RH  027%=      5-min Rain = 0
KWA1 102149Z 18023KT 24/04 A2962 RMK A01 T02400037  RH  027%=      5-min Rain = 0
KWA1 102150Z 19022KT 24/04 A2962 RMK A01 T02400038  RH  027%=      5-min Rain = 0
KWA1 102151Z 18019G24KT 24/04 A2962 RMK A01 T02390038  RH  027%=      5-min Rain = 0
KWA1 102152Z 19020KT 24/04 A2962 RMK A01 T02390038  RH  027%=      5-min Rain = 0
KWA1 102153Z 19018KT 24/04 A2962 RMK A01 T02390038  RH  027%=      5-min Rain = 0
KWA1 102154Z 19017KT 24/04 A2962 RMK A01 T02390038  RH  027%=      5-min Rain = 0
KWA1 102155Z 18018KT 24/04 A2962 RMK A01 T02400039  RH  027%=      5-min Rain = 0
KWA1 102156Z 19017KT 24/04 A2962 RMK A01 T02410039  RH  027%=      5-min Rain = 0
KWA1 102157Z 19021G26KT 24/04 A2962 RMK A01 T02400038  RH  027%=      5-min Rain = 0
KWA1 102158Z 19020KT 24/04 A2962 RMK A01 T02380037  RH  027%=      5-min Rain = 0
KWA1 102159Z 19020KT 24/04 A2962 RMK A01 T02380038  RH  027%=      5-min Rain = 0
KWA1 102200Z 19018KT 24/04 A2962 RMK A01 T02380038  RH  027%=      5-min Rain = 0
KWA1 102201Z 18018KT 24/04 A2962 RMK A01 T02380038  RH  027%=      5-min Rain = 0
KWA1 102202Z 18020KT 24/04 A2961 RMK A01 T02390038  RH  027%=      5-min Rain = 0
KWA1 102203Z 18019KT 24/04 A2961 RMK A01 T02380038  RH  027%=      5-min Rain = 0
KWA1 102204Z 19020KT 24/04 A2961 RMK A01 T02380038  RH  027%=      5-min Rain = 0
KWA1 102205Z 19019KT 24/04 A2961 RMK A01 T02380038  RH  027%=      5-min Rain = 0
KWA1 102206Z 19021KT 24/04 A2961 RMK A01 T02380038  RH  027%=      5-min Rain = 0
KWA1 102207Z 19021KT 24/04 A2961 RMK A01 T02380037  RH  027%=      5-min Rain = 0
KWA1 102208Z 19020KT 24/04 A2961 RMK A01 T02380037  RH  027%=      5-min Rain = 0
KWA1 102209Z 19020KT 24/04 A2961 RMK A01 T02370037  RH  027%=      5-min Rain = 0
KWA1 102210Z 19018G23KT 24/04 A2961 RMK A01 T02370037  RH  027%=      5-min Rain = 0
KWA1 102211Z 18020KT 24/04 A2961 RMK A01 T02370037  RH  027%=      5-min Rain = 0
KWA1 102212Z 19019G24KT 24/04 A2961 RMK A01 T02360038  RH  027%=      5-min Rain = 0
KWA1 102213Z 18019G24KT 24/04 A2961 RMK A01 T02360038  RH  028%=      5-min Rain = 0
KWA1 102214Z 18019G24KT 24/04 A2961 RMK A01 T02350039  RH  028%=      5-min Rain = 0
KWA1 102215Z 18021KT 24/04 A2961 RMK A01 T02360039  RH  028%=      5-min Rain = 0
KWA1 102216Z 18020KT 24/04 A2961 RMK A01 T02350038  RH  028%=      5-min Rain = 0
KWA1 102217Z 18022KT 24/04 A2961 RMK A01 T02350038  RH  028%=      5-min Rain = 0
KWA1 102218Z 19022KT 24/04 A2961 RMK A01 T02350038  RH  028%=      5-min Rain = 0
KWA1 102219Z 19021KT 23/04 A2961 RMK A01 T02340038  RH  028%=      5-min Rain = 0
KWA1 102220Z 19022KT 23/04 A2961 RMK A01 T02340038  RH  028%=      5-min Rain = 0
KWA1 102221Z 19021KT 23/04 A2961 RMK A01 T02340038  RH  028%=      5-min Rain = 0
KWA1 102222Z 20020KT 23/04 A2961 RMK A01 T02340039  RH  028%=      5-min Rain = 0
KWA1 102223Z 19022KT 24/04 A2961 RMK A01 T02350039  RH  028%=      5-min Rain = 0
KWA1 102224Z 18020G25KT 23/04 A2961 RMK A01 T02340039  RH  028%=      5-min Rain = 0
KWA1 102225Z 19021G26KT 23/04 A2961 RMK A01 T02340039  RH  028%=      5-min Rain = 0
KWA1 102226Z 18022G27KT 23/04 A2961 RMK A01 T02340039  RH  028%=      5-min Rain = 0
KWA1 102227Z 19022KT 23/04 A2961 RMK A01 T02340039  RH  028%=      5-min Rain = 0
KWA1 102228Z 19019KT 23/04 A2961 RMK A01 T02340039  RH  028%=      5-min Rain = 0
KWA1 102229Z 19019KT 23/04 A2961 RMK A01 T02340039  RH  028%=      5-min Rain = 0
KWA1 102230Z 19019KT 23/04 A2961 RMK A01 T02340039  RH  028%=      5-min Rain = 0
KWA1 102231Z 19020KT 23/04 A2961 RMK A01 T02340040  RH  028%=      5-min Rain = 0
KWA1 102232Z 18017G22KT 23/04 A2961 RMK A01 T02340040  RH  028%=      5-min Rain = 0
KWA1 102233Z 19021KT 23/04 A2961 RMK A01 T02340040  RH  028%=      5-min Rain = 0
KWA1 102234Z 19017G23KT 23/04 A2961 RMK A01 T02330039  RH  028%=      5-min Rain = 0
KWA1 102235Z 19018G23KT 23/04 A2962 RMK A01 T02330040  RH  028%=      5-min Rain = 0
KWA1 102236Z 19018KT 23/04 A2962 RMK A01 T02330040  RH  028%=      5-min Rain = 0
KWA1 102237Z 19020KT 23/04 A2961 RMK A01 T02330040  RH  028%=      5-min Rain = 0
KWA1 102238Z 19018KT 23/04 A2961 RMK A01 T02330040  RH  028%=      5-min Rain = 0
KWA1 102239Z 18021G26KT 23/04 A2961 RMK A01 T02320040  RH  028%=      5-min Rain = 0
KWA1 102240Z 19021KT 23/04 A2961 RMK A01 T02320040  RH  029%=      5-min Rain = 0
KWA1 102241Z 19020KT 23/04 A2961 RMK A01 T02310040  RH  029%=      5-min Rain = 0
KWA1 102242Z 19017KT 23/04 A2962 RMK A01 T02310041  RH  029%=      5-min Rain = 0
KWA1 102243Z 19019G25KT 23/04 A2962 RMK A01 T02310041  RH  029%=      5-min Rain = 0
KWA1 102244Z 19021KT 23/04 A2962 RMK A01 T02310040  RH  029%=      5-min Rain = 0
KWA1 102245Z 19021KT 23/04 A2962 RMK A01 T02300040  RH  029%=      5-min Rain = 0
KWA1 102246Z 19022KT 23/04 A2962 RMK A01 T02290040  RH  029%=      5-min Rain = 0
KWA1 102247Z 19022KT 23/04 A2962 RMK A01 T02290040  RH  029%=      5-min Rain = 0
KWA1 102248Z 19019KT 23/04 A2962 RMK A01 T02280041  RH  029%=      5-min Rain = 0
KWA1 102249Z 18019KT 23/04 A2962 RMK A01 T02280041  RH  029%=      5-min Rain = 0
KWA1 102250Z 19019G27KT 23/04 A2962 RMK A01 T02280042  RH  030%=      5-min Rain = 0
KWA1 102251Z 19020G25KT 23/04 A2962 RMK A01 T02280041  RH  030%=      5-min Rain = 0
KWA1 102252Z 19022KT 23/04 A2962 RMK A01 T02280041  RH  030%=      5-min Rain = 0
KWA1 102253Z 19020KT 23/04 A2962 RMK A01 T02270041  RH  030%=      5-min Rain = 0
KWA1 102254Z 19017G22KT 23/04 A2962 RMK A01 T02270041  RH  030%=      5-min Rain = 0
KWA1 102255Z 19021KT 23/04 A2962 RMK A01 T02270041  RH  030%=      5-min Rain = 0
KWA1 102256Z 19019KT 23/04 A2962 RMK A01 T02260041  RH  030%=      5-min Rain = 0
KWA1 102257Z 19021KT 23/04 A2962 RMK A01 T02260041  RH  030%=      5-min Rain = 0
KWA1 102258Z 19019KT 23/04 A2962 RMK A01 T02260041  RH  030%=      5-min Rain = 0
KWA1 102259Z 19019G24KT 23/04 A2962 RMK A01 T02250041  RH  030%=      5-min Rain = 0
KWA1 102300Z 19017KT 23/04 A2962 RMK A01 T02250041  RH  030%=      5-min Rain = 0
KWA1 102301Z 19016G21KT 23/04 A2962 RMK A01 T02250042  RH  030%=      5-min Rain = 0
KWA1 102302Z 19017KT 22/04 A2962 RMK A01 T02240042  RH  030%=      5-min Rain = 0
KWA1 102303Z 19016KT 22/04 A2962 RMK A01 T02240041  RH  030%=      5-min Rain = 0
KWA1 102304Z 18019KT 22/04 A2962 RMK A01 T02240042  RH  030%=      5-min Rain = 0
KWA1 102305Z 19020KT 22/04 A2962 RMK A01 T02230041  RH  031%=      5-min Rain = 0
KWA1 102306Z 19020KT 22/04 A2961 RMK A01 T02230042  RH  031%=      5-min Rain = 0
KWA1 102307Z 19019KT 22/04 A2962 RMK A01 T02230042  RH  031%=      5-min Rain = 0
KWA1 102308Z 19019KT 22/04 A2962 RMK A01 T02220042  RH  031%=      5-min Rain = 0
KWA1 102309Z 19018KT 22/04 A2962 RMK A01 T02220042  RH  031%=      5-min Rain = 0
KWA1 102310Z 19018KT 22/04 A2962 RMK A01 T02220041  RH  031%=      5-min Rain = 0
KWA1 102311Z 19016KT 22/04 A2962 RMK A01 T02210041  RH  031%=      5-min Rain = 0
KWA1 102312Z 19016KT 22/04 A2962 RMK A01 T02210041  RH  031%=      5-min Rain = 0
KWA1 102313Z 20017KT 22/04 A2962 RMK A01 T02200041  RH  031%=      5-min Rain = 0
KWA1 102314Z 19017KT 22/04 A2961 RMK A01 T02200040  RH  031%=      5-min Rain = 0
KWA1 102315Z 19016KT 22/04 A2962 RMK A01 T02200040  RH  031%=      5-min Rain = 0
KWA1 102316Z 19015KT 22/04 A2962 RMK A01 T02190041  RH  031%=      5-min Rain = 0
KWA1 102317Z 19016KT 22/04 A2961 RMK A01 T02180041  RH  031%=      5-min Rain = 0
KWA1 102318Z 19014KT 22/04 A2962 RMK A01 T02180042  RH  032%=      5-min Rain = 0
KWA1 102319Z 19016KT 22/04 A2961 RMK A01 T02170042  RH  032%=      5-min Rain = 0
KWA1 102320Z 18017KT 22/04 A2962 RMK A01 T02170042  RH  032%=      5-min Rain = 0
KWA1 102321Z 19018KT 22/04 A2961 RMK A01 T02170042  RH  032%=      5-min Rain = 0
KWA1 102322Z 19017KT 22/04 A2962 RMK A01 T02160042  RH  032%=      5-min Rain = 0
KWA1 102323Z 18015KT 22/04 A2962 RMK A01 T02160042  RH  032%=      5-min Rain = 0
KWA1 102324Z 18016KT 22/04 A2962 RMK A01 T02150043  RH  032%=      5-min Rain = 0
KWA1 102325Z 19015KT 21/04 A2962 RMK A01 T02140042  RH  032%=      5-min Rain = 0
KWA1 102326Z 19015KT 21/04 A2962 RMK A01 T02140043  RH  033%=      5-min Rain = 0
KWA1 102327Z 19017KT 21/04 A2962 RMK A01 T02130043  RH  033%=      5-min Rain = 0
KWA1 102328Z 19017KT 21/04 A2962 RMK A01 T02120043  RH  033%=      5-min Rain = 0
KWA1 102329Z 19018KT 21/04 A2962 RMK A01 T02130043  RH  033%=      5-min Rain = 0
KWA1 102330Z 18015KT 21/04 A2962 RMK A01 T02130043  RH  033%=      5-min Rain = 0
KWA1 102331Z 18016KT 21/04 A2961 RMK A01 T02110044  RH  033%=      5-min Rain = 0
KWA1 102332Z 19017KT 21/04 A2961 RMK A01 T02100043  RH  033%=      5-min Rain = 0
KWA1 102333Z 19018KT 21/04 A2961 RMK A01 T02100043  RH  033%=      5-min Rain = 0
KWA1 102334Z 18017KT 21/04 A2961 RMK A01 T02100043  RH  033%=      5-min Rain = 0
KWA1 102335Z 18015KT 21/04 A2961 RMK A01 T02110044  RH  034%=      5-min Rain = 0
KWA1 102336Z 18014KT 21/04 A2961 RMK A01 T02090043  RH  034%=      5-min Rain = 0
KWA1 102337Z 19014KT 21/04 A2961 RMK A01 T02080044  RH  034%=      5-min Rain = 0
KWA1 102338Z 18015KT 21/04 A2961 RMK A01 T02070043  RH  034%=      5-min Rain = 0
KWA1 102339Z 19015KT 21/04 A2961 RMK A01 T02070043  RH  034%=      5-min Rain = 0
KWA1 102340Z 19018G23KT 21/04 A2961 RMK A01 T02060043  RH  034%=      5-min Rain = 0
KWA1 102341Z 19017KT 21/04 A2961 RMK A01 T02060043  RH  034%=      5-min Rain = 0
KWA1 102342Z 19018KT 21/04 A2961 RMK A01 T02060043  RH  034%=      5-min Rain = 0
KWA1 102343Z 19017KT 21/04 A2962 RMK A01 T02060043  RH  034%=      5-min Rain = 0
KWA1 102344Z 19017KT 21/04 A2962 RMK A01 T02060043  RH  034%=      5-min Rain = 0
KWA1 102345Z 19017KT 20/04 A2962 RMK A01 T02040043  RH  035%=      5-min Rain = 0
KWA1 102346Z 19017KT 20/04 A2962 RMK A01 T02040043  RH  035%=      5-min Rain = 0
KWA1 102347Z 19018KT 20/04 A2962 RMK A01 T02040043  RH  035%=      5-min Rain = 0
KWA1 102348Z 19017KT 20/04 A2962 RMK A01 T02030043  RH  035%=      5-min Rain = 0
KWA1 102349Z 19018KT 20/04 A2962 RMK A01 T02020043  RH  035%=      5-min Rain = 0
KWA1 102350Z 19019G24KT 20/04 A2962 RMK A01 T02020044  RH  035%=      5-min Rain = 0
KWA1 102351Z 19017KT 20/04 A2962 RMK A01 T02020044  RH  035%=      5-min Rain = 0
KWA1 102352Z 19016KT 20/04 A2962 RMK A01 T02020044  RH  035%=      5-min Rain = 0
KWA1 102353Z 19016KT 20/04 A2962 RMK A01 T02010044  RH  036%=      5-min Rain = 0
KWA1 102354Z 19014KT 20/04 A2962 RMK A01 T02000044  RH  036%=      5-min Rain = 0
KWA1 102355Z 19017KT 20/04 A2962 RMK A01 T01990044  RH  036%=      5-min Rain = 0
KWA1 102356Z 19016KT 20/04 A2962 RMK A01 T01990044  RH  036%=      5-min Rain = 0
KWA1 102357Z 20014KT 20/05 A2962 RMK A01 T01980045  RH  036%=      5-min Rain = 0
KWA1 102358Z 19013KT 20/04 A2962 RMK A01 T01970044  RH  037%=      5-min Rain = 0
KWA1 102359Z 20014KT 20/04 A2962 RMK A01 T01960044  RH  037%=      5-min Rain = 0
KWA1 110000Z 20013KT 20/04 A2962 RMK A01 T01950044  RH  037%=      5-min Rain = 0
KWA1 110001Z 19012KT 19/04 A2962 RMK A01 T01940044  RH  037%=      5-min Rain = 0
KWA1 110002Z 19013KT 19/05 A2963 RMK A01 T01940045  RH  037%=      5-min Rain = 0
KWA1 110003Z 19012KT 19/05 A2963 RMK A01 T01930045  RH  038%=      5-min Rain = 0
KWA1 110004Z 19012KT 19/05 A2963 RMK A01 T01930045  RH  038%=      5-min Rain = 0
KWA1 110005Z 19014KT 19/05 A2963 RMK A01 T01930046  RH  038%=      5-min Rain = 0
KWA1 110006Z 19015KT 19/05 A2963 RMK A01 T01930046  RH  038%=      5-min Rain = 0
KWA1 110007Z 19012KT 19/05 A2963 RMK A01 T01930047  RH  038%=      5-min Rain = 0
KWA1 110008Z 19013KT 19/05 A2963 RMK A01 T01920047  RH  038%=      5-min Rain = 0
KWA1 110009Z 19012KT 19/05 A2963 RMK A01 T01920047  RH  038%=      5-min Rain = 0
KWA1 110010Z 20013KT 19/05 A2963 RMK A01 T01910047  RH  039%=      5-min Rain = 0
KWA1 110011Z 20013KT 19/05 A2963 RMK A01 T01910047  RH  039%=      5-min Rain = 0
KWA1 110012Z 20015KT 19/05 A2964 RMK A01 T01910048  RH  039%=      5-min Rain = 0
KWA1 110013Z 20015KT 19/05 A2964 RMK A01 T01910049  RH  039%=      5-min Rain = 0
KWA1 110014Z 20015KT 19/05 A2964 RMK A01 T01910049  RH  039%=      5-min Rain = 0
KWA1 110015Z 21014KT 19/05 A2964 RMK A01 T01910050  RH  039%=      5-min Rain = 0
KWA1 110016Z 23014KT 19/05 A2965 RMK A01 T01910050  RH  039%=      5-min Rain = 0
KWA1 110017Z 27013KT 19/05 A2966 RMK A01 T01900050  RH  040%=      5-min Rain = 0
KWA1 110018Z 30015KT 19/05 A2967 RMK A01 T01880048  RH  040%=      5-min Rain = 0
KWA1 110019Z 30019KT 18/05 A2968 RMK A01 T01840047  RH  040%=      5-min Rain = 0
KWA1 110020Z 30019KT 18/05 A2968 RMK A01 T01830047  RH  041%=      5-min Rain = 0
KWA1 110021Z 29019KT 18/05 A2968 RMK A01 T01820047  RH  041%=      5-min Rain = 0
KWA1 110022Z 29022KT 18/05 A2969 RMK A01 T01820047  RH  041%=      5-min Rain = 0
KWA1 110023Z 28019G24KT 18/05 A2969 RMK A01 T01840048  RH  041%=      5-min Rain = 0
KWA1 110024Z 26019KT 19/05 A2968 RMK A01 T01870049  RH  040%=      5-min Rain = 0
KWA1 110025Z 25019KT 19/05 A2968 RMK A01 T01900050  RH  040%=      5-min Rain = 0
KWA1 110026Z 25017KT 19/05 A2968 RMK A01 T01910050  RH  039%=      5-min Rain = 0
KWA1 110027Z 25018KT 19/05 A2969 RMK A01 T01910050  RH  039%=      5-min Rain = 0
KWA1 110028Z 26016KT 19/05 A2969 RMK A01 T01910050  RH  040%=      5-min Rain = 0
KWA1 110029Z 27016KT 19/05 A297 RMK A01 T01900050  RH  040%=      5-min Rain = 0
KWA1 110030Z 26015KT 19/05 A297 RMK A01 T01880049  RH  040%=      5-min Rain = 0
KWA1 110031Z 26017KT 19/05 A297 RMK A01 T01880050  RH  040%=      5-min Rain = 0
KWA1 110032Z 25017KT 19/05 A297 RMK A01 T01880050  RH  040%=      5-min Rain = 0
KWA1 110033Z 24018KT 19/05 A297 RMK A01 T01890051  RH  040%=      5-min Rain = 0
KWA1 110034Z 24017KT 19/05 A297 RMK A01 T01890051  RH  040%=      5-min Rain = 0
KWA1 110035Z 25019KT 19/05 A297 RMK A01 T01890052  RH  040%=      5-min Rain = 0
KWA1 110036Z 24017KT 19/05 A2971 RMK A01 T01890052  RH  040%=      5-min Rain = 0
KWA1 110037Z 25019KT 19/05 A2971 RMK A01 T01890052  RH  041%=      5-min Rain = 0
KWA1 110038Z 25020KT 19/05 A2971 RMK A01 T01900053  RH  041%=      5-min Rain = 0
KWA1 110039Z 24021KT 19/05 A2971 RMK A01 T01900053  RH  040%=      5-min Rain = 0
KWA1 110040Z 24019KT 19/05 A2971 RMK A01 T01920054  RH  040%=      5-min Rain = 0
KWA1 110041Z 24019KT 19/05 A2971 RMK A01 T01920054  RH  040%=      5-min Rain = 0
KWA1 110042Z 24017KT 19/05 A2972 RMK A01 T01930053  RH  040%=      5-min Rain = 0
KWA1 110043Z 24018KT 19/05 A2972 RMK A01 T01920053  RH  040%=      5-min Rain = 0
KWA1 110044Z 24019KT 19/05 A2972 RMK A01 T01920053  RH  040%=      5-min Rain = 0
KWA1 110045Z 24017KT 19/05 A2972 RMK A01 T01920052  RH  040%=      5-min Rain = 0
KWA1 110046Z 23015KT 19/05 A2972 RMK A01 T01910053  RH  040%=      5-min Rain = 0
KWA1 110047Z 23014KT 19/05 A2972 RMK A01 T01880052  RH  041%=      5-min Rain = 0
KWA1 110048Z 24013KT 19/05 A2972 RMK A01 T01860051  RH  041%=      5-min Rain = 0
KWA1 110049Z 24014KT 19/05 A2972 RMK A01 T01860051  RH  041%=      5-min Rain = 0
KWA1 110050Z 24014KT 19/05 A2972 RMK A01 T01860050  RH  041%=      5-min Rain = 0
KWA1 110051Z 24014KT 19/05 A2973 RMK A01 T01860050  RH  041%=      5-min Rain = 0
KWA1 110052Z 25013KT 19/05 A2973 RMK A01 T01850049  RH  041%=      5-min Rain = 0
KWA1 110053Z 25014KT 18/05 A2973 RMK A01 T01840049  RH  041%=      5-min Rain = 0
KWA1 110054Z 24014KT 18/05 A2973 RMK A01 T01840049  RH  041%=      5-min Rain = 0
KWA1 110055Z 24015KT 18/05 A2973 RMK A01 T01830049  RH  041%=      5-min Rain = 0
KWA1 110056Z 25015KT 18/05 A2973 RMK A01 T01830049  RH  041%=      5-min Rain = 0
KWA1 110057Z 25018G23KT 18/05 A2974 RMK A01 T01820050  RH  042%=      5-min Rain = 0
KWA1 110058Z 25017G22KT 18/05 A2974 RMK A01 T01820050  RH  042%=      5-min Rain = 0
KWA1 110059Z 25023G28KT 18/05 A2974 RMK A01 T01830051  RH  042%=      5-min Rain = 0
KWA1 110100Z 26025G31KT 19/05 A2974 RMK A01 T01860052  RH  041%=      5-min Rain = 0
KWA1 110101Z 26023KT 19/05 A2974 RMK A01 T01880053  RH  041%=      5-min Rain = 0
KWA1 110102Z 27022G27KT 19/05 A2975 RMK A01 T01870052  RH  041%=      5-min Rain = 0
KWA1 110103Z 27025G30KT 19/05 A2975 RMK A01 T01870052  RH  041%=      5-min Rain = 0
KWA1 110104Z 27024KT 19/05 A2975 RMK A01 T01880053  RH  041%=      5-min Rain = 0
KWA1 110105Z 28018KT 19/05 A2976 RMK A01 T01850052  RH  041%=      5-min Rain = 0
KWA1 110106Z 28021KT 18/05 A2976 RMK A01 T01830052  RH  042%=      5-min Rain = 0
KWA1 110107Z 28020KT 18/05 A2976 RMK A01 T01810051  RH  042%=      5-min Rain = 0
KWA1 110108Z 28020KT 18/05 A2976 RMK A01 T01790051  RH  043%=      5-min Rain = 0
KWA1 110109Z 28020KT 18/05 A2976 RMK A01 T01770051  RH  043%=      5-min Rain = 0
KWA1 110110Z 29020KT 18/05 A2976 RMK A01 T01760051  RH  044%=      5-min Rain = 0
KWA1 110111Z 29017G22KT 18/05 A2976 RMK A01 T01750050  RH  044%=      5-min Rain = 0
KWA1 110112Z 29018KT 17/05 A2975 RMK A01 T01730049  RH  044%=      5-min Rain = 0
KWA1 110113Z 29016KT 17/05 A2975 RMK A01 T01720049  RH  044%=      5-min Rain = 0
KWA1 110114Z 29015KT 17/05 A2975 RMK A01 T01710049  RH  044%=      5-min Rain = 0
KWA1 110115Z 29015KT 17/05 A2975 RMK A01 T01700049  RH  045%=      5-min Rain = 0
KWA1 110116Z 29014KT 17/05 A2975 RMK A01 T01700049  RH  045%=      5-min Rain = 0
KWA1 110117Z 29013KT 17/05 A2975 RMK A01 T01690049  RH  045%=      5-min Rain = 0
KWA1 110118Z 29013KT 17/05 A2975 RMK A01 T01680049  RH  045%=      5-min Rain = 0
KWA1 110119Z 28011KT 17/05 A2975 RMK A01 T01670049  RH  045%=      5-min Rain = 0
KWA1 110120Z 28011KT 17/05 A2975 RMK A01 T01660049  RH  046%=      5-min Rain = 0
KWA1 110121Z 28013KT 17/05 A2975 RMK A01 T01650047  RH  046%=      5-min Rain = 0
KWA1 110122Z 28014KT 17/05 A2976 RMK A01 T01650046  RH  045%=      5-min Rain = 0
KWA1 110123Z 27013KT 16/05 A2976 RMK A01 T01640045  RH  045%=      5-min Rain = 0
KWA1 110124Z 27014KT 16/05 A2976 RMK A01 T01630045  RH  046%=      5-min Rain = 0
KWA1 110125Z 28013KT 16/04 A2976 RMK A01 T01620044  RH  046%=      5-min Rain = 0
KWA1 110126Z 27013KT 16/04 A2976 RMK A01 T01610044  RH  046%=      5-min Rain = 0
KWA1 110127Z 27012KT 16/04 A2976 RMK A01 T01610044  RH  046%=      5-min Rain = 0
KWA1 110128Z 28014KT 16/04 A2976 RMK A01 T01610044  RH  046%=      5-min Rain = 0
KWA1 110129Z 28013KT 16/04 A2976 RMK A01 T01610043  RH  045%=      5-min Rain = 0
KWA1 110130Z 27013KT 16/04 A2976 RMK A01 T01610043  RH  045%=      5-min Rain = 0
KWA1 110131Z 27012KT 16/04 A2976 RMK A01 T01600043  RH  046%=      5-min Rain = 0
KWA1 110132Z 27011KT 16/04 A2976 RMK A01 T01590043  RH  046%=      5-min Rain = 0
KWA1 110133Z 27012KT 16/04 A2976 RMK A01 T01590043  RH  046%=      5-min Rain = 0
KWA1 110134Z 27012KT 16/04 A2976 RMK A01 T01580042  RH  046%=      5-min Rain = 0
KWA1 110135Z 27013KT 16/04 A2976 RMK A01 T01580041  RH  046%=      5-min Rain = 0
KWA1 110136Z 27013KT 16/04 A2976 RMK A01 T01580041  RH  046%=      5-min Rain = 0
KWA1 110137Z 27014KT 16/04 A2976 RMK A01 T01590041  RH  046%=      5-min Rain = 0
KWA1 110138Z 27013KT 16/04 A2976 RMK A01 T01590041  RH  045%=      5-min Rain = 0
KWA1 110139Z 27011KT 16/04 A2976 RMK A01 T01590042  RH  046%=      5-min Rain = 0
KWA1 110140Z 26011KT 16/04 A2976 RMK A01 T01570041  RH  046%=      5-min Rain = 0
KWA1 110141Z 26011KT 16/04 A2976 RMK A01 T01560042  RH  046%=      5-min Rain = 0
KWA1 110142Z 26010KT 16/04 A2976 RMK A01 T01550042  RH  047%=      5-min Rain = 0
KWA1 110143Z 26009KT 15/04 A2976 RMK A01 T01540042  RH  047%=      5-min Rain = 0
KWA1 110144Z 25009KT 15/04 A2976 RMK A01 T01530042  RH  048%=      5-min Rain = 0
KWA1 110145Z 25010KT 15/04 A2976 RMK A01 T01520042  RH  048%=      5-min Rain = 0
KWA1 110146Z 26011KT 15/04 A2976 RMK A01 T01510042  RH  048%=      5-min Rain = 0
KWA1 110147Z 25010KT 15/04 A2976 RMK A01 T01510043  RH  048%=      5-min Rain = 0
KWA1 110148Z 25010KT 15/04 A2976 RMK A01 T01510043  RH  048%=      5-min Rain = 0
KWA1 110149Z 25010KT 15/04 A2976 RMK A01 T01500043  RH  049%=      5-min Rain = 0
KWA1 110150Z 25010KT 15/04 A2976 RMK A01 T01500043  RH  049%=      5-min Rain = 0
KWA1 110151Z 25010KT 15/04 A2976 RMK A01 T01500043  RH  049%=      5-min Rain = 0
KWA1 110152Z 24010KT 15/04 A2976 RMK A01 T01500043  RH  049%=      5-min Rain = 0
KWA1 110153Z 24011KT 15/04 A2976 RMK A01 T01500043  RH  049%=      5-min Rain = 0
KWA1 110154Z 24011KT 15/04 A2976 RMK A01 T01500043  RH  049%=      5-min Rain = 0
KWA1 110155Z 24011KT 15/04 A2976 RMK A01 T01500043  RH  049%=      5-min Rain = 0
KWA1 110156Z 24010KT 15/04 A2976 RMK A01 T01490043  RH  049%=      5-min Rain = 0
KWA1 110157Z 24010KT 15/04 A2976 RMK A01 T01490042  RH  049%=      5-min Rain = 0
KWA1 110158Z 24010KT 15/04 A2976 RMK A01 T01480043  RH  049%=      5-min Rain = 0
KWA1 110159Z 24010KT 15/04 A2976 RMK A01 T01480043  RH  049%=      5-min Rain = 0
KWA1 110200Z 23011KT 15/04 A2977 RMK A01 T01480043  RH  049%=      5-min Rain = 0
KWA1 110201Z 23011KT 15/04 A2977 RMK A01 T01480043  RH  049%=      5-min Rain = 0
KWA1 110202Z 23011KT 15/04 A2977 RMK A01 T01470043  RH  049%=      5-min Rain = 0
KWA1 110203Z 23012KT 15/04 A2977 RMK A01 T01460042  RH  050%=      5-min Rain = 0
KWA1 110204Z 23012KT 15/04 A2977 RMK A01 T01460042  RH  050%=      5-min Rain = 0
KWA1 110205Z 23011KT 15/04 A2977 RMK A01 T01460042  RH  050%=      5-min Rain = 0
KWA1 110206Z 23011KT 15/04 A2977 RMK A01 T01450042  RH  050%=      5-min Rain = 0
KWA1 110207Z 23011KT 15/04 A2977 RMK A01 T01450042  RH  050%=      5-min Rain = 0
KWA1 110208Z 23012KT 15/04 A2977 RMK A01 T01450042  RH  050%=      5-min Rain = 0
KWA1 110209Z 23011KT 14/04 A2977 RMK A01 T01440042  RH  050%=      5-min Rain = 0
KWA1 110210Z 23010KT 14/04 A2977 RMK A01 T01440042  RH  050%=      5-min Rain = 0
KWA1 110211Z 23010KT 14/04 A2977 RMK A01 T01430041  RH  050%=      5-min Rain = 0
KWA1 110212Z 22010KT 14/04 A2977 RMK A01 T01420042  RH  051%=      5-min Rain = 0
KWA1 110213Z 22010KT 14/04 A2976 RMK A01 T01420042  RH  051%=      5-min Rain = 0
KWA1 110214Z 22010KT 14/04 A2976 RMK A01 T01410042  RH  051%=      5-min Rain = 0
KWA1 110215Z 22011KT 14/04 A2976 RMK A01 T01410042  RH  051%=      5-min Rain = 0
KWA1 110216Z 22010KT 14/04 A2977 RMK A01 T01420042  RH  051%=      5-min Rain = 0
KWA1 110217Z 22010KT 14/04 A2977 RMK A01 T01410042  RH  051%=      5-min Rain = 0
KWA1 110218Z 22010KT 14/04 A2977 RMK A01 T01410042  RH  051%=      5-min Rain = 0
KWA1 110219Z 22011KT 14/04 A2977 RMK A01 T01400042  RH  051%=      5-min Rain = 0
KWA1 110220Z 22010KT 14/04 A2977 RMK A01 T01400041  RH  051%=      5-min Rain = 0
KWA1 110221Z 22010KT 14/04 A2977 RMK A01 T01400041  RH  051%=      5-min Rain = 0
KWA1 110222Z 22010KT 14/04 A2977 RMK A01 T01400041  RH  052%=      5-min Rain = 0
KWA1 110223Z 22010KT 14/04 A2977 RMK A01 T01390041  RH  052%=      5-min Rain = 0
KWA1 110224Z 21009KT 14/04 A2976 RMK A01 T01390041  RH  052%=      5-min Rain = 0
KWA1 110225Z 22009KT 14/04 A2976 RMK A01 T01390041  RH  052%=      5-min Rain = 0
KWA1 110226Z 21009KT 14/04 A2976 RMK A01 T01390041  RH  052%=      5-min Rain = 0
KWA1 110227Z 21009KT 14/04 A2976 RMK A01 T01390041  RH  052%=      5-min Rain = 0
KWA1 110228Z 21009KT 14/04 A2976 RMK A01 T01390041  RH  052%=      5-min Rain = 0
KWA1 110229Z 21009KT 14/04 A2976 RMK A01 T01390041  RH  052%=      5-min Rain = 0
KWA1 110230Z 21009KT 14/04 A2976 RMK A01 T01380041  RH  052%=      5-min Rain = 0
KWA1 110231Z 21008KT 14/04 A2976 RMK A01 T01380041  RH  052%=      5-min Rain = 0
KWA1 110232Z 20008KT 14/04 A2976 RMK A01 T01380041  RH  052%=      5-min Rain = 0
KWA1 110233Z 20008KT 14/04 A2976 RMK A01 T01380041  RH  052%=      5-min Rain = 0
KWA1 110234Z 21009KT 14/04 A2976 RMK A01 T01370041  RH  052%=      5-min Rain = 0
KWA1 110235Z 21009KT 14/04 A2976 RMK A01 T01370041  RH  052%=      5-min Rain = 0
KWA1 110236Z 21010KT 14/04 A2976 RMK A01 T01380041  RH  052%=      5-min Rain = 0
KWA1 110237Z 20008KT 14/04 A2976 RMK A01 T01380041  RH  052%=      5-min Rain = 0
KWA1 110238Z 20009KT 14/04 A2976 RMK A01 T01380041  RH  052%=      5-min Rain = 0
KWA1 110239Z 20010KT 14/04 A2976 RMK A01 T01380041  RH  052%=      5-min Rain = 0
KWA1 110240Z 20009KT 14/04 A2976 RMK A01 T01380041  RH  052%=      5-min Rain = 0
KWA1 110241Z 20010KT 14/04 A2976 RMK A01 T01380041  RH  052%=      5-min Rain = 0
KWA1 110242Z 20009KT 14/04 A2976 RMK A01 T01380041  RH  052%=      5-min Rain = 0
KWA1 110243Z 20008KT 14/04 A2976 RMK A01 T01390042  RH  052%=      5-min Rain = 0
KWA1 110244Z 20008KT 14/04 A2976 RMK A01 T01390042  RH  052%=      5-min Rain = 0
KWA1 110245Z 20008KT 14/04 A2976 RMK A01 T01390042  RH  052%=      5-min Rain = 0
KWA1 110246Z 20008KT 14/04 A2976 RMK A01 T01390042  RH  052%=      5-min Rain = 0
KWA1 110247Z 21009KT 14/04 A2976 RMK A01 T01390042  RH  052%=      5-min Rain = 0
KWA1 110248Z 20008KT 14/04 A2976 RMK A01 T01390042  RH  052%=      5-min Rain = 0
KWA1 110249Z 20009KT 14/04 A2976 RMK A01 T01390043  RH  052%=      5-min Rain = 0
KWA1 110250Z 20009KT 14/04 A2976 RMK A01 T01390043  RH  052%=      5-min Rain = 0
KWA1 110251Z 19008KT 14/04 A2976 RMK A01 T01400042  RH  052%=      5-min Rain = 0
KWA1 110252Z 19008KT 14/04 A2976 RMK A01 T01400043  RH  052%=      5-min Rain = 0
KWA1 110253Z 20009KT 14/04 A2976 RMK A01 T01400043  RH  052%=      5-min Rain = 0
KWA1 110254Z 20009KT 14/04 A2976 RMK A01 T01410042  RH  051%=      5-min Rain = 0
KWA1 110255Z 20009KT 14/04 A2976 RMK A01 T01420042  RH  051%=      5-min Rain = 0
KWA1 110256Z 20010KT 14/04 A2976 RMK A01 T01410042  RH  051%=      5-min Rain = 0
KWA1 110257Z 20010KT 14/04 A2976 RMK A01 T01420042  RH  051%=      5-min Rain = 0
KWA1 110258Z 20010KT 14/04 A2976 RMK A01 T01420041  RH  051%=      5-min Rain = 0
KWA1 110259Z 20011KT 14/04 A2976 RMK A01 T01420040  RH  050%=      5-min Rain = 0
KWA1 110300Z 21011KT 14/04 A2977 RMK A01 T01430039  RH  050%=      5-min Rain = 0
KWA1 110301Z 21011KT 14/04 A2977 RMK A01 T01440039  RH  049%=      5-min Rain = 0
KWA1 110302Z 21010KT 14/04 A2977 RMK A01 T01440039  RH  049%=      5-min Rain = 0
KWA1 110303Z 22010KT 14/04 A2977 RMK A01 T01440038  RH  049%=      5-min Rain = 0
KWA1 110304Z 21011KT 15/04 A2977 RMK A01 T01450038  RH  049%=      5-min Rain = 0
KWA1 110305Z 21011KT 15/04 A2977 RMK A01 T01460038  RH  048%=      5-min Rain = 0
KWA1 110306Z 21010KT 15/04 A2977 RMK A01 T01460038  RH  048%=      5-min Rain = 0
KWA1 110307Z 21010KT 15/04 A2977 RMK A01 T01460037  RH  048%=      5-min Rain = 0
KWA1 110308Z 22011KT 15/04 A2977 RMK A01 T01460037  RH  048%=      5-min Rain = 0
KWA1 110309Z 22011KT 15/04 A2977 RMK A01 T01460037  RH  048%=      5-min Rain = 0
KWA1 110310Z 22010KT 15/04 A2977 RMK A01 T01460037  RH  048%=      5-min Rain = 0
KWA1 110311Z 22010KT 15/04 A2977 RMK A01 T01460037  RH  048%=      5-min Rain = 0
KWA1 110312Z 22010KT 15/04 A2977 RMK A01 T01460037  RH  048%=      5-min Rain = 0
KWA1 110313Z 22010KT 15/04 A2977 RMK A01 T01460037  RH  048%=      5-min Rain = 0
KWA1 110314Z 21011KT 15/04 A2977 RMK A01 T01450037  RH  048%=      5-min Rain = 0
KWA1 110315Z 21011KT 15/04 A2977 RMK A01 T01450037  RH  048%=      5-min Rain = 0
KWA1 110316Z 21010KT 15/04 A2977 RMK A01 T01450037  RH  048%=      5-min Rain = 0
KWA1 110317Z 21010KT 15/04 A2977 RMK A01 T01450037  RH  048%=      5-min Rain = 0
KWA1 110318Z 21010KT 15/04 A2977 RMK A01 T01450037  RH  048%=      5-min Rain = 0
KWA1 110319Z 21012KT 15/04 A2977 RMK A01 T01450037  RH  048%=      5-min Rain = 0
KWA1 110320Z 21010KT 14/04 A2977 RMK A01 T01440037  RH  048%=      5-min Rain = 0
KWA1 110321Z 21011KT 14/04 A2977 RMK A01 T01430036  RH  049%=      5-min Rain = 0
KWA1 110322Z 22011KT 14/04 A2977 RMK A01 T01430036  RH  049%=      5-min Rain = 0
KWA1 110323Z 21011KT 14/04 A2977 RMK A01 T01440036  RH  048%=      5-min Rain = 0
KWA1 110324Z 21011KT 14/04 A2977 RMK A01 T01430036  RH  049%=      5-min Rain = 0
KWA1 110325Z 22011KT 14/04 A2977 RMK A01 T01430036  RH  049%=      5-min Rain = 0
KWA1 110326Z 21011KT 14/04 A2977 RMK A01 T01430036  RH  049%=      5-min Rain = 0
KWA1 110327Z 21010KT 14/04 A2977 RMK A01 T01420037  RH  049%=      5-min Rain = 0
KWA1 110328Z 21010KT 14/04 A2977 RMK A01 T01420036  RH  049%=      5-min Rain = 0
KWA1 110329Z 22010KT 14/04 A2977 RMK A01 T01400036  RH  049%=      5-min Rain = 0
KWA1 110330Z 22010KT 14/04 A2977 RMK A01 T01400036  RH  049%=      5-min Rain = 0
KWA1 110331Z 22010KT 14/04 A2977 RMK A01 T01400036  RH  049%=      5-min Rain = 0
KWA1 110332Z 22011KT 14/04 A2977 RMK A01 T01400036  RH  049%=      5-min Rain = 0
KWA1 110333Z 22011KT 14/04 A2977 RMK A01 T01400036  RH  049%=      5-min Rain = 0
KWA1 110334Z 22011KT 14/04 A2977 RMK A01 T01400036  RH  049%=      5-min Rain = 0
KWA1 110335Z 22010KT 14/04 A2977 RMK A01 T01400035  RH  049%=      5-min Rain = 0
KWA1 110336Z 22010KT 14/04 A2977 RMK A01 T01390035  RH  049%=      5-min Rain = 0
KWA1 110337Z 21009KT 14/04 A2977 RMK A01 T01390035  RH  049%=      5-min Rain = 0
KWA1 110338Z 21010KT 14/03 A2977 RMK A01 T01380034  RH  049%=      5-min Rain = 0
KWA1 110339Z 21010KT 14/04 A2977 RMK A01 T01380035  RH  050%=      5-min Rain = 0
KWA1 110340Z 21010KT 14/04 A2977 RMK A01 T01380035  RH  050%=      5-min Rain = 0
KWA1 110341Z 22010KT 14/03 A2977 RMK A01 T01370034  RH  050%=      5-min Rain = 0
KWA1 110342Z 22010KT 14/03 A2977 RMK A01 T01370034  RH  050%=      5-min Rain = 0
KWA1 110343Z 22011KT 14/03 A2977 RMK A01 T01370034  RH  050%=      5-min Rain = 0
KWA1 110344Z 22011KT 14/03 A2977 RMK A01 T01370034  RH  050%=      5-min Rain = 0
KWA1 110345Z 21010KT 14/03 A2977 RMK A01 T01360034  RH  050%=      5-min Rain = 0
KWA1 110346Z 22010KT 14/03 A2977 RMK A01 T01360034  RH  050%=      5-min Rain = 0
KWA1 110347Z 22010KT 14/03 A2977 RMK A01 T01350034  RH  050%=      5-min Rain = 0
KWA1 110348Z 22011KT 14/03 A2977 RMK A01 T01350034  RH  050%=      5-min Rain = 0
KWA1 110349Z 21010KT 13/03 A2977 RMK A01 T01340034  RH  051%=      5-min Rain = 0
KWA1 110350Z 21011KT 13/03 A2977 RMK A01 T01330033  RH  051%=      5-min Rain = 0
KWA1 110351Z 21011KT 13/03 A2977 RMK A01 T01320033  RH  051%=      5-min Rain = 0
KWA1 110352Z 21010KT 13/03 A2977 RMK A01 T01320032  RH  051%=      5-min Rain = 0
KWA1 110353Z 21011KT 13/03 A2977 RMK A01 T01310032  RH  051%=      5-min Rain = 0
KWA1 110354Z 21010KT 13/03 A2977 RMK A01 T01310033  RH  051%=      5-min Rain = 0
KWA1 110355Z 22010KT 13/03 A2977 RMK A01 T01300032  RH  051%=      5-min Rain = 0
KWA1 110356Z 21010KT 13/03 A2977 RMK A01 T01290032  RH  052%=      5-min Rain = 0
KWA1 110357Z 21009KT 13/03 A2977 RMK A01 T01280032  RH  052%=      5-min Rain = 0
KWA1 110358Z 21009KT 13/03 A2977 RMK A01 T01280032  RH  052%=      5-min Rain = 0
KWA1 110359Z 21009KT 13/03 A2977 RMK A01 T01270031  RH  052%=      5-min Rain = 0
KWA1 110400Z 21010KT 13/03 A2977 RMK A01 T01270032  RH  052%=      5-min Rain = 0
KWA1 110401Z 21010KT 13/03 A2977 RMK A01 T01260031  RH  052%=      5-min Rain = 0
KWA1 110402Z 20010KT 13/03 A2977 RMK A01 T01260031  RH  052%=      5-min Rain = 0
KWA1 110403Z 20010KT 13/03 A2977 RMK A01 T01260031  RH  052%=      5-min Rain = 0
KWA1 110404Z 20010KT 13/03 A2977 RMK A01 T01260031  RH  052%=      5-min Rain = 0
KWA1 110405Z 20010KT 13/03 A2977 RMK A01 T01250030  RH  052%=      5-min Rain = 0
KWA1 110406Z 20010KT 13/03 A2977 RMK A01 T01250030  RH  052%=      5-min Rain = 0
KWA1 110407Z 20011KT 13/03 A2977 RMK A01 T01250030  RH  052%=      5-min Rain = 0
KWA1 110408Z 20011KT 12/03 A2976 RMK A01 T01240030  RH  053%=      5-min Rain = 0
KWA1 110409Z 20011KT 12/03 A2977 RMK A01 T01240030  RH  053%=      5-min Rain = 0
KWA1 110410Z 20012KT 12/03 A2977 RMK A01 T01240030  RH  053%=      5-min Rain = 0
KWA1 110411Z 20013KT 12/03 A2977 RMK A01 T01240030  RH  053%=      5-min Rain = 0
KWA1 110412Z 20013KT 13/03 A2976 RMK A01 T01250030  RH  052%=      5-min Rain = 0
KWA1 110413Z 20012KT 13/03 A2977 RMK A01 T01260030  RH  052%=      5-min Rain = 0
KWA1 110414Z 21011KT 13/03 A2977 RMK A01 T01260030  RH  052%=      5-min Rain = 0
KWA1 110415Z 20011KT 13/03 A2977 RMK A01 T01260030  RH  052%=      5-min Rain = 0
KWA1 110416Z 20012KT 13/03 A2977 RMK A01 T01260030  RH  052%=      5-min Rain = 0
KWA1 110417Z 20012KT 13/03 A2977 RMK A01 T01260029  RH  052%=      5-min Rain = 0
KWA1 110418Z 20012KT 13/03 A2977 RMK A01 T01260029  RH  052%=      5-min Rain = 0
KWA1 110419Z 20012KT 13/03 A2977 RMK A01 T01260029  RH  052%=      5-min Rain = 0
KWA1 110420Z 20012KT 13/03 A2977 RMK A01 T01260029  RH  052%=      5-min Rain = 0
KWA1 110421Z 20012KT 13/03 A2977 RMK A01 T01250029  RH  052%=      5-min Rain = 0
KWA1 110422Z 20011KT 13/03 A2977 RMK A01 T01260029  RH  052%=      5-min Rain = 0
KWA1 110423Z 20012KT 13/03 A2977 RMK A01 T01260029  RH  052%=      5-min Rain = 0
KWA1 110424Z 21012KT 13/03 A2977 RMK A01 T01260028  RH  051%=      5-min Rain = 0
KWA1 110425Z 21012KT 13/03 A2977 RMK A01 T01270028  RH  051%=      5-min Rain = 0
KWA1 110426Z 21012KT 13/03 A2977 RMK A01 T01280028  RH  051%=      5-min Rain = 0
KWA1 110427Z 21012KT 13/03 A2977 RMK A01 T01280027  RH  050%=      5-min Rain = 0
KWA1 110428Z 21012KT 13/03 A2977 RMK A01 T01290028  RH  050%=      5-min Rain = 0
KWA1 110429Z 21012KT 13/03 A2977 RMK A01 T01290027  RH  050%=      5-min Rain = 0
KWA1 110430Z 21013KT 13/03 A2977 RMK A01 T01290027  RH  050%=      5-min Rain = 0
KWA1 110431Z 21013KT 13/03 A2977 RMK A01 T01290027  RH  050%=      5-min Rain = 0
KWA1 110432Z 22011KT 13/03 A2977 RMK A01 T01290027  RH  050%=      5-min Rain = 0
KWA1 110433Z 22011KT 13/03 A2977 RMK A01 T01290027  RH  050%=      5-min Rain = 0
KWA1 110434Z 22010KT 13/03 A2977 RMK A01 T01290027  RH  050%=      5-min Rain = 0
KWA1 110435Z 21010KT 13/03 A2977 RMK A01 T01290026  RH  050%=      5-min Rain = 0
KWA1 110436Z 21011KT 13/03 A2977 RMK A01 T01280026  RH  050%=      5-min Rain = 0
KWA1 110437Z 22010KT 13/03 A2977 RMK A01 T01280026  RH  050%=      5-min Rain = 0
KWA1 110438Z 22010KT 13/03 A2977 RMK A01 T01280026  RH  050%=      5-min Rain = 0
KWA1 110439Z 22010KT 13/03 A2977 RMK A01 T01280025  RH  050%=      5-min Rain = 0
KWA1 110440Z 22011KT 13/03 A2977 RMK A01 T01270025  RH  050%=      5-min Rain = 0
KWA1 110441Z 22010KT 13/03 A2977 RMK A01 T01260025  RH  050%=      5-min Rain = 0
KWA1 110442Z 22012KT 13/03 A2977 RMK A01 T01260025  RH  050%=      5-min Rain = 0
KWA1 110443Z 22013KT 13/03 A2977 RMK A01 T01260025  RH  050%=      5-min Rain = 0
KWA1 110444Z 22013KT 13/03 A2977 RMK A01 T01270025  RH  050%=      5-min Rain = 0
KWA1 110445Z 22011KT 13/03 A2977 RMK A01 T01280025  RH  050%=      5-min Rain = 0
KWA1 110446Z 22011KT 13/03 A2977 RMK A01 T01260025  RH  050%=      5-min Rain = 0
KWA1 110447Z 22012KT 13/02 A2977 RMK A01 T01250024  RH  050%=      5-min Rain = 0
KWA1 110448Z 22013KT 13/02 A2977 RMK A01 T01250024  RH  050%=      5-min Rain = 0
KWA1 110449Z 22012KT 13/02 A2977 RMK A01 T01250024  RH  050%=      5-min Rain = 0
KWA1 110450Z 22012KT 13/02 A2977 RMK A01 T01250024  RH  050%=      5-min Rain = 0
KWA1 110451Z 22011KT 12/02 A2976 RMK A01 T01240024  RH  050%=      5-min Rain = 0
KWA1 110452Z 22012KT 12/02 A2976 RMK A01 T01230024  RH  051%=      5-min Rain = 0
KWA1 110453Z 22011KT 12/02 A2976 RMK A01 T01230024  RH  051%=      5-min Rain = 0
KWA1 110454Z 22011KT 12/02 A2976 RMK A01 T01220024  RH  051%=      5-min Rain = 0
KWA1 110455Z 22011KT 12/02 A2976 RMK A01 T01220024  RH  051%=      5-min Rain = 0
KWA1 110456Z 22010KT 12/02 A2976 RMK A01 T01210024  RH  051%=      5-min Rain = 0
KWA1 110457Z 22010KT 12/02 A2976 RMK A01 T01200024  RH  052%=      5-min Rain = 0
KWA1 110458Z 22011KT 12/02 A2976 RMK A01 T01190024  RH  052%=      5-min Rain = 0
KWA1 110459Z 21011KT 12/02 A2976 RMK A01 T01190024  RH  052%=      5-min Rain = 0
KWA1 110500Z 22011KT 12/02 A2976 RMK A01 T01190024  RH  052%=      5-min Rain = 0
KWA1 110501Z 22010KT 12/02 A2976 RMK A01 T01190024  RH  052%=      5-min Rain = 0
KWA1 110502Z 22011KT 12/02 A2976 RMK A01 T01180024  RH  052%=      5-min Rain = 0
KWA1 110503Z 22011KT 12/02 A2976 RMK A01 T01180024  RH  052%=      5-min Rain = 0
KWA1 110504Z 22011KT 12/02 A2976 RMK A01 T01180024  RH  052%=      5-min Rain = 0
KWA1 110505Z 22011KT 12/02 A2976 RMK A01 T01180024  RH  052%=      5-min Rain = 0
KWA1 110506Z 21011KT 12/02 A2976 RMK A01 T01180024  RH  052%=      5-min Rain = 0
KWA1 110507Z 22011KT 12/02 A2976 RMK A01 T01170023  RH  053%=      5-min Rain = 0
KWA1 110508Z 22011KT 12/02 A2976 RMK A01 T01170023  RH  053%=      5-min Rain = 0
KWA1 110509Z 21011KT 12/02 A2976 RMK A01 T01170024  RH  053%=      5-min Rain = 0
KWA1 110510Z 21011KT 12/02 A2976 RMK A01 T01170023  RH  053%=      5-min Rain = 0
KWA1 110511Z 22010KT 12/02 A2976 RMK A01 T01160023  RH  053%=      5-min Rain = 0
KWA1 110512Z 21010KT 12/02 A2976 RMK A01 T01160023  RH  053%=      5-min Rain = 0
KWA1 110513Z 21010KT 12/02 A2976 RMK A01 T01160023  RH  053%=      5-min Rain = 0
KWA1 110514Z 21011KT 12/02 A2976 RMK A01 T01150023  RH  053%=      5-min Rain = 0
KWA1 110515Z 21011KT 12/02 A2976 RMK A01 T01150023  RH  053%=      5-min Rain = 0
KWA1 110516Z 21009KT 12/02 A2975 RMK A01 T01150023  RH  053%=      5-min Rain = 0
KWA1 110517Z 21010KT 12/02 A2975 RMK A01 T01160023  RH  053%=      5-min Rain = 0
KWA1 110518Z 21010KT 12/02 A2975 RMK A01 T01160023  RH  053%=      5-min Rain = 0
KWA1 110519Z 21011KT 12/02 A2975 RMK A01 T01160023  RH  053%=      5-min Rain = 0
KWA1 110520Z 21011KT 12/02 A2975 RMK A01 T01160022  RH  053%=      5-min Rain = 0
KWA1 110521Z 20011KT 12/02 A2975 RMK A01 T01160022  RH  053%=      5-min Rain = 0
KWA1 110522Z 21010KT 12/02 A2975 RMK A01 T01150022  RH  053%=      5-min Rain = 0
KWA1 110523Z 20011KT 12/02 A2975 RMK A01 T01150023  RH  053%=      5-min Rain = 0
KWA1 110524Z 21010KT 11/02 A2975 RMK A01 T01140022  RH  053%=      5-min Rain = 0
KWA1 110525Z 21010KT 11/02 A2975 RMK A01 T01140022  RH  053%=      5-min Rain = 0
KWA1 110526Z 21011KT 12/02 A2975 RMK A01 T01150022  RH  053%=      5-min Rain = 0
KWA1 110527Z 21011KT 12/02 A2975 RMK A01 T01150022  RH  053%=      5-min Rain = 0
KWA1 110528Z 21011KT 12/02 A2975 RMK A01 T01160022  RH  052%=      5-min Rain = 0
KWA1 110529Z 21011KT 12/02 A2975 RMK A01 T01180022  RH  052%=      5-min Rain = 0
KWA1 110530Z 21010KT 12/02 A2975 RMK A01 T01180022  RH  052%=      5-min Rain = 0
KWA1 110531Z 21009KT 12/02 A2975 RMK A01 T01160022  RH  052%=      5-min Rain = 0
KWA1 110532Z 21010KT 12/02 A2975 RMK A01 T01160022  RH  052%=      5-min Rain = 0
KWA1 110533Z 21009KT 12/02 A2975 RMK A01 T01150022  RH  053%=      5-min Rain = 0
KWA1 110534Z 21010KT 12/02 A2975 RMK A01 T01160022  RH  052%=      5-min Rain = 0
KWA1 110535Z 20010KT 12/02 A2975 RMK A01 T01160022  RH  053%=      5-min Rain = 0
KWA1 110536Z 20009KT 12/02 A2975 RMK A01 T01150022  RH  053%=      5-min Rain = 0
KWA1 110537Z 20010KT 11/02 A2975 RMK A01 T01140021  RH  053%=      5-min Rain = 0
KWA1 110538Z 21010KT 11/02 A2975 RMK A01 T01140021  RH  053%=      5-min Rain = 0
KWA1 110539Z 21010KT 12/02 A2975 RMK A01 T01150022  RH  053%=      5-min Rain = 0
KWA1 110540Z 21011KT 12/02 A2975 RMK A01 T01150022  RH  053%=      5-min Rain = 0
KWA1 110541Z 21011KT 12/02 A2975 RMK A01 T01160022  RH  052%=      5-min Rain = 0
KWA1 110542Z 20012KT 12/02 A2974 RMK A01 T01170022  RH  052%=      5-min Rain = 0
KWA1 110543Z 21011KT 12/02 A2974 RMK A01 T01180023  RH  052%=      5-min Rain = 0
KWA1 110544Z 20012KT 12/02 A2974 RMK A01 T01180022  RH  052%=      5-min Rain = 0
KWA1 110545Z 20011KT 12/02 A2974 RMK A01 T01190023  RH  052%=      5-min Rain = 0
KWA1 110546Z 20011KT 12/02 A2974 RMK A01 T01180023  RH  052%=      5-min Rain = 0
KWA1 110547Z 21012KT 12/02 A2974 RMK A01 T01180023  RH  052%=      5-min Rain = 0
KWA1 110548Z 21011KT 12/02 A2974 RMK A01 T01190023  RH  052%=      5-min Rain = 0
KWA1 110549Z 21011KT 12/02 A2974 RMK A01 T01190024  RH  052%=      5-min Rain = 0
KWA1 110550Z 20013KT 12/02 A2974 RMK A01 T01190024  RH  052%=      5-min Rain = 0
KWA1 110551Z 20013KT 12/02 A2974 RMK A01 T01200024  RH  052%=      5-min Rain = 0
KWA1 110552Z 20012KT 12/03 A2974 RMK A01 T01200025  RH  052%=      5-min Rain = 0
KWA1 110553Z 20012KT 12/03 A2974 RMK A01 T01210025  RH  052%=      5-min Rain = 0
KWA1 110554Z 20012KT 12/03 A2974 RMK A01 T01200025  RH  052%=      5-min Rain = 0
KWA1 110555Z 20012KT 12/03 A2974 RMK A01 T01200025  RH  052%=      5-min Rain = 0
KWA1 110556Z 20013KT 12/03 A2974 RMK A01 T01200025  RH  052%=      5-min Rain = 0
KWA1 110557Z 20013KT 12/03 A2974 RMK A01 T01200025  RH  052%=      5-min Rain = 0
KWA1 110558Z 20012KT 12/03 A2974 RMK A01 T01200025  RH  052%=      5-min Rain = 0
KWA1 110559Z 20012KT 12/03 A2973 RMK A01 T01200025  RH  052%=      5-min Rain = 0

Page generated in 0.1358 seconds.